<?xml version="1.0" encoding="UTF-8" standalone="no" ?>
<gpx xmlns="http://www.topografix.com/GPX/1/1" xmlns:xsi="http://www.w3.org/2001/XMLSchema-instance" xsi:schemaLocation="http://www.topografix.com/GPX/1/1 http://www.topografix.com/GPX/1/1/gpx.xsd" version="1.1" creator="VisuGPX - https://www.visugpx.com">
  <metadata>
    <name>2013-05-Saignon</name>
    <desc><![CDATA[Petite rando]]></desc>
  </metadata>
  <trk>
    <name><![CDATA[2013-05-SAIGNON]]></name>
    <trkseg>
      <trkpt lat="43.86202" lon="5.43037">
        <ele>520.21</ele>
        <time>2013-05-05T07:23:22Z</time>
      </trkpt>
      <trkpt lat="43.86202" lon="5.43038">
        <ele>520.21</ele>
        <time>2013-05-05T07:23:23Z</time>
      </trkpt>
      <trkpt lat="43.86202" lon="5.43038">
        <ele>520.21</ele>
        <time>2013-05-05T07:23:24Z</time>
      </trkpt>
      <trkpt lat="43.86203" lon="5.4304">
        <ele>520.21</ele>
        <time>2013-05-05T07:23:56Z</time>
      </trkpt>
      <trkpt lat="43.86202" lon="5.4304">
        <ele>519.73</ele>
        <time>2013-05-05T07:24:15Z</time>
      </trkpt>
      <trkpt lat="43.86203" lon="5.43043">
        <ele>519.25</ele>
        <time>2013-05-05T07:24:43Z</time>
      </trkpt>
      <trkpt lat="43.86203" lon="5.43046">
        <ele>519.25</ele>
        <time>2013-05-05T07:25:04Z</time>
      </trkpt>
      <trkpt lat="43.86203" lon="5.43047">
        <ele>519.25</ele>
        <time>2013-05-05T07:25:20Z</time>
      </trkpt>
      <trkpt lat="43.86202" lon="5.43045">
        <ele>518.77</ele>
        <time>2013-05-05T07:25:39Z</time>
      </trkpt>
      <trkpt lat="43.86203" lon="5.43041">
        <ele>518.77</ele>
        <time>2013-05-05T07:25:55Z</time>
      </trkpt>
      <trkpt lat="43.86202" lon="5.43043">
        <ele>518.29</ele>
        <time>2013-05-05T07:26:14Z</time>
      </trkpt>
      <trkpt lat="43.86202" lon="5.43039">
        <ele>517.81</ele>
        <time>2013-05-05T07:26:35Z</time>
      </trkpt>
      <trkpt lat="43.86203" lon="5.43041">
        <ele>517.81</ele>
        <time>2013-05-05T07:26:56Z</time>
      </trkpt>
      <trkpt lat="43.86203" lon="5.43042">
        <ele>517.33</ele>
        <time>2013-05-05T07:27:19Z</time>
      </trkpt>
      <trkpt lat="43.86202" lon="5.43042">
        <ele>517.33</ele>
        <time>2013-05-05T07:27:37Z</time>
      </trkpt>
      <trkpt lat="43.86203" lon="5.43045">
        <ele>517.33</ele>
        <time>2013-05-05T07:27:52Z</time>
      </trkpt>
      <trkpt lat="43.86202" lon="5.43046">
        <ele>517.33</ele>
        <time>2013-05-05T07:28:10Z</time>
      </trkpt>
      <trkpt lat="43.862" lon="5.43045">
        <ele>516.85</ele>
        <time>2013-05-05T07:28:28Z</time>
      </trkpt>
      <trkpt lat="43.862" lon="5.43046">
        <ele>516.37</ele>
        <time>2013-05-05T07:28:59Z</time>
      </trkpt>
      <trkpt lat="43.862" lon="5.43043">
        <ele>515.88</ele>
        <time>2013-05-05T07:29:25Z</time>
      </trkpt>
      <trkpt lat="43.86199" lon="5.43043">
        <ele>514.44</ele>
        <time>2013-05-05T07:29:41Z</time>
      </trkpt>
      <trkpt lat="43.86191" lon="5.43046">
        <ele>514.44</ele>
        <time>2013-05-05T07:29:56Z</time>
      </trkpt>
      <trkpt lat="43.86189" lon="5.43047">
        <ele>514.44</ele>
        <time>2013-05-05T07:30:11Z</time>
      </trkpt>
      <trkpt lat="43.86189" lon="5.43047">
        <ele>514.92</ele>
        <time>2013-05-05T07:30:30Z</time>
      </trkpt>
      <trkpt lat="43.86189" lon="5.43046">
        <ele>513.48</ele>
        <time>2013-05-05T07:30:45Z</time>
      </trkpt>
      <trkpt lat="43.86188" lon="5.43046">
        <ele>514.44</ele>
        <time>2013-05-05T07:31:05Z</time>
      </trkpt>
      <trkpt lat="43.86186" lon="5.43045">
        <ele>514.44</ele>
        <time>2013-05-05T07:31:24Z</time>
      </trkpt>
      <trkpt lat="43.8618" lon="5.43035">
        <ele>513.96</ele>
        <time>2013-05-05T07:31:37Z</time>
      </trkpt>
      <trkpt lat="43.8618" lon="5.43023">
        <ele>512.52</ele>
        <time>2013-05-05T07:31:46Z</time>
      </trkpt>
      <trkpt lat="43.86174" lon="5.43007">
        <ele>511.56</ele>
        <time>2013-05-05T07:32:02Z</time>
      </trkpt>
      <trkpt lat="43.86167" lon="5.43004">
        <ele>511.08</ele>
        <time>2013-05-05T07:32:12Z</time>
      </trkpt>
      <trkpt lat="43.86158" lon="5.43007">
        <ele>512.52</ele>
        <time>2013-05-05T07:32:20Z</time>
      </trkpt>
      <trkpt lat="43.86144" lon="5.43013">
        <ele>513.48</ele>
        <time>2013-05-05T07:32:35Z</time>
      </trkpt>
      <trkpt lat="43.86128" lon="5.43013">
        <ele>514.44</ele>
        <time>2013-05-05T07:32:49Z</time>
      </trkpt>
      <trkpt lat="43.86116" lon="5.43016">
        <ele>516.37</ele>
        <time>2013-05-05T07:33:04Z</time>
      </trkpt>
      <trkpt lat="43.86103" lon="5.4302">
        <ele>517.33</ele>
        <time>2013-05-05T07:33:20Z</time>
      </trkpt>
      <trkpt lat="43.86087" lon="5.43025">
        <ele>519.25</ele>
        <time>2013-05-05T07:33:39Z</time>
      </trkpt>
      <trkpt lat="43.86072" lon="5.43031">
        <ele>521.17</ele>
        <time>2013-05-05T07:33:56Z</time>
      </trkpt>
      <trkpt lat="43.8606" lon="5.43033">
        <ele>522.13</ele>
        <time>2013-05-05T07:34:11Z</time>
      </trkpt>
      <trkpt lat="43.8605" lon="5.43039">
        <ele>523.09</ele>
        <time>2013-05-05T07:34:22Z</time>
      </trkpt>
      <trkpt lat="43.86042" lon="5.43048">
        <ele>525.02</ele>
        <time>2013-05-05T07:34:36Z</time>
      </trkpt>
      <trkpt lat="43.86038" lon="5.43059">
        <ele>525.98</ele>
        <time>2013-05-05T07:34:46Z</time>
      </trkpt>
      <trkpt lat="43.86033" lon="5.43073">
        <ele>527.9</ele>
        <time>2013-05-05T07:34:58Z</time>
      </trkpt>
      <trkpt lat="43.8603" lon="5.43088">
        <ele>529.82</ele>
        <time>2013-05-05T07:35:12Z</time>
      </trkpt>
      <trkpt lat="43.86029" lon="5.43109">
        <ele>531.75</ele>
        <time>2013-05-05T07:35:28Z</time>
      </trkpt>
      <trkpt lat="43.86027" lon="5.43123">
        <ele>532.71</ele>
        <time>2013-05-05T07:35:43Z</time>
      </trkpt>
      <trkpt lat="43.86024" lon="5.43142">
        <ele>534.15</ele>
        <time>2013-05-05T07:35:59Z</time>
      </trkpt>
      <trkpt lat="43.86019" lon="5.43152">
        <ele>535.59</ele>
        <time>2013-05-05T07:36:13Z</time>
      </trkpt>
      <trkpt lat="43.86018" lon="5.43161">
        <ele>535.11</ele>
        <time>2013-05-05T07:36:27Z</time>
      </trkpt>
      <trkpt lat="43.86014" lon="5.43174">
        <ele>536.07</ele>
        <time>2013-05-05T07:36:40Z</time>
      </trkpt>
      <trkpt lat="43.86012" lon="5.43191">
        <ele>537.03</ele>
        <time>2013-05-05T07:36:54Z</time>
      </trkpt>
      <trkpt lat="43.86008" lon="5.43212">
        <ele>537.99</ele>
        <time>2013-05-05T07:37:11Z</time>
      </trkpt>
      <trkpt lat="43.86003" lon="5.43234">
        <ele>539.44</ele>
        <time>2013-05-05T07:37:29Z</time>
      </trkpt>
      <trkpt lat="43.85994" lon="5.43249">
        <ele>540.4</ele>
        <time>2013-05-05T07:37:44Z</time>
      </trkpt>
      <trkpt lat="43.85986" lon="5.43256">
        <ele>540.88</ele>
        <time>2013-05-05T07:37:58Z</time>
      </trkpt>
      <trkpt lat="43.85976" lon="5.43267">
        <ele>541.84</ele>
        <time>2013-05-05T07:38:13Z</time>
      </trkpt>
      <trkpt lat="43.85967" lon="5.43277">
        <ele>543.28</ele>
        <time>2013-05-05T07:38:27Z</time>
      </trkpt>
      <trkpt lat="43.85959" lon="5.43289">
        <ele>544.24</ele>
        <time>2013-05-05T07:38:41Z</time>
      </trkpt>
      <trkpt lat="43.85948" lon="5.433">
        <ele>545.69</ele>
        <time>2013-05-05T07:38:57Z</time>
      </trkpt>
      <trkpt lat="43.85938" lon="5.43312">
        <ele>547.13</ele>
        <time>2013-05-05T07:39:12Z</time>
      </trkpt>
      <trkpt lat="43.8593" lon="5.43323">
        <ele>548.57</ele>
        <time>2013-05-05T07:39:27Z</time>
      </trkpt>
      <trkpt lat="43.85926" lon="5.43327">
        <ele>549.05</ele>
        <time>2013-05-05T07:39:32Z</time>
      </trkpt>
      <trkpt lat="43.85917" lon="5.43338">
        <ele>550.49</ele>
        <time>2013-05-05T07:39:44Z</time>
      </trkpt>
      <trkpt lat="43.85906" lon="5.4335">
        <ele>551.45</ele>
        <time>2013-05-05T07:40:01Z</time>
      </trkpt>
      <trkpt lat="43.85894" lon="5.43354">
        <ele>552.41</ele>
        <time>2013-05-05T07:40:14Z</time>
      </trkpt>
      <trkpt lat="43.85885" lon="5.4336">
        <ele>552.9</ele>
        <time>2013-05-05T07:40:25Z</time>
      </trkpt>
      <trkpt lat="43.85872" lon="5.4337">
        <ele>554.34</ele>
        <time>2013-05-05T07:40:40Z</time>
      </trkpt>
      <trkpt lat="43.85861" lon="5.43373">
        <ele>555.78</ele>
        <time>2013-05-05T07:40:54Z</time>
      </trkpt>
      <trkpt lat="43.85846" lon="5.43379">
        <ele>556.26</ele>
        <time>2013-05-05T07:41:11Z</time>
      </trkpt>
      <trkpt lat="43.85838" lon="5.43386">
        <ele>556.26</ele>
        <time>2013-05-05T07:41:23Z</time>
      </trkpt>
      <trkpt lat="43.85821" lon="5.434">
        <ele>556.74</ele>
        <time>2013-05-05T07:41:42Z</time>
      </trkpt>
      <trkpt lat="43.85809" lon="5.43409">
        <ele>556.74</ele>
        <time>2013-05-05T07:41:57Z</time>
      </trkpt>
      <trkpt lat="43.85791" lon="5.43424">
        <ele>556.26</ele>
        <time>2013-05-05T07:42:18Z</time>
      </trkpt>
      <trkpt lat="43.85772" lon="5.43432">
        <ele>556.74</ele>
        <time>2013-05-05T07:42:37Z</time>
      </trkpt>
      <trkpt lat="43.85754" lon="5.43438">
        <ele>556.74</ele>
        <time>2013-05-05T07:42:55Z</time>
      </trkpt>
      <trkpt lat="43.85736" lon="5.43441">
        <ele>557.7</ele>
        <time>2013-05-05T07:43:12Z</time>
      </trkpt>
      <trkpt lat="43.85726" lon="5.43447">
        <ele>557.22</ele>
        <time>2013-05-05T07:43:23Z</time>
      </trkpt>
      <trkpt lat="43.85721" lon="5.43451">
        <ele>557.22</ele>
        <time>2013-05-05T07:43:27Z</time>
      </trkpt>
      <trkpt lat="43.85702" lon="5.4345">
        <ele>557.7</ele>
        <time>2013-05-05T07:43:44Z</time>
      </trkpt>
      <trkpt lat="43.85686" lon="5.43445">
        <ele>558.66</ele>
        <time>2013-05-05T07:44:01Z</time>
      </trkpt>
      <trkpt lat="43.85666" lon="5.43441">
        <ele>558.66</ele>
        <time>2013-05-05T07:44:20Z</time>
      </trkpt>
      <trkpt lat="43.85649" lon="5.43439">
        <ele>558.66</ele>
        <time>2013-05-05T07:44:36Z</time>
      </trkpt>
      <trkpt lat="43.8563" lon="5.43436">
        <ele>558.66</ele>
        <time>2013-05-05T07:44:54Z</time>
      </trkpt>
      <trkpt lat="43.8561" lon="5.43434">
        <ele>559.14</ele>
        <time>2013-05-05T07:45:12Z</time>
      </trkpt>
      <trkpt lat="43.85606" lon="5.43433">
        <ele>559.14</ele>
        <time>2013-05-05T07:45:16Z</time>
      </trkpt>
      <trkpt lat="43.85604" lon="5.43434">
        <ele>559.14</ele>
        <time>2013-05-05T07:45:18Z</time>
      </trkpt>
      <trkpt lat="43.85586" lon="5.43429">
        <ele>559.62</ele>
        <time>2013-05-05T07:45:36Z</time>
      </trkpt>
      <trkpt lat="43.85571" lon="5.43428">
        <ele>561.55</ele>
        <time>2013-05-05T07:45:50Z</time>
      </trkpt>
      <trkpt lat="43.85559" lon="5.43423">
        <ele>562.51</ele>
        <time>2013-05-05T07:46:03Z</time>
      </trkpt>
      <trkpt lat="43.85556" lon="5.43422">
        <ele>562.51</ele>
        <time>2013-05-05T07:46:06Z</time>
      </trkpt>
      <trkpt lat="43.85554" lon="5.43421">
        <ele>562.51</ele>
        <time>2013-05-05T07:46:08Z</time>
      </trkpt>
      <trkpt lat="43.85552" lon="5.43421">
        <ele>563.47</ele>
        <time>2013-05-05T07:46:10Z</time>
      </trkpt>
      <trkpt lat="43.85537" lon="5.43418">
        <ele>564.91</ele>
        <time>2013-05-05T07:46:25Z</time>
      </trkpt>
      <trkpt lat="43.85533" lon="5.43419">
        <ele>564.91</ele>
        <time>2013-05-05T07:46:29Z</time>
      </trkpt>
      <trkpt lat="43.85516" lon="5.43427">
        <ele>567.32</ele>
        <time>2013-05-05T07:46:46Z</time>
      </trkpt>
      <trkpt lat="43.85499" lon="5.43434">
        <ele>569.72</ele>
        <time>2013-05-05T07:47:02Z</time>
      </trkpt>
      <trkpt lat="43.85489" lon="5.43438">
        <ele>571.16</ele>
        <time>2013-05-05T07:47:11Z</time>
      </trkpt>
      <trkpt lat="43.85471" lon="5.43444">
        <ele>573.56</ele>
        <time>2013-05-05T07:47:28Z</time>
      </trkpt>
      <trkpt lat="43.85453" lon="5.43446">
        <ele>575.49</ele>
        <time>2013-05-05T07:47:42Z</time>
      </trkpt>
      <trkpt lat="43.85436" lon="5.43448">
        <ele>576.45</ele>
        <time>2013-05-05T07:47:58Z</time>
      </trkpt>
      <trkpt lat="43.85421" lon="5.43446">
        <ele>577.89</ele>
        <time>2013-05-05T07:48:11Z</time>
      </trkpt>
      <trkpt lat="43.85403" lon="5.43446">
        <ele>579.33</ele>
        <time>2013-05-05T07:48:28Z</time>
      </trkpt>
      <trkpt lat="43.85402" lon="5.43445">
        <ele>579.33</ele>
        <time>2013-05-05T07:48:29Z</time>
      </trkpt>
      <trkpt lat="43.85386" lon="5.43444">
        <ele>579.81</ele>
        <time>2013-05-05T07:48:43Z</time>
      </trkpt>
      <trkpt lat="43.85371" lon="5.43448">
        <ele>581.25</ele>
        <time>2013-05-05T07:48:58Z</time>
      </trkpt>
      <trkpt lat="43.85355" lon="5.43453">
        <ele>582.22</ele>
        <time>2013-05-05T07:49:13Z</time>
      </trkpt>
      <trkpt lat="43.85333" lon="5.43462">
        <ele>583.18</ele>
        <time>2013-05-05T07:49:32Z</time>
      </trkpt>
      <trkpt lat="43.85315" lon="5.43471">
        <ele>583.18</ele>
        <time>2013-05-05T07:49:49Z</time>
      </trkpt>
      <trkpt lat="43.853" lon="5.43476">
        <ele>584.14</ele>
        <time>2013-05-05T07:50:03Z</time>
      </trkpt>
      <trkpt lat="43.85281" lon="5.43485">
        <ele>584.62</ele>
        <time>2013-05-05T07:50:20Z</time>
      </trkpt>
      <trkpt lat="43.85261" lon="5.43495">
        <ele>584.62</ele>
        <time>2013-05-05T07:50:40Z</time>
      </trkpt>
      <trkpt lat="43.85244" lon="5.43505">
        <ele>585.1</ele>
        <time>2013-05-05T07:50:57Z</time>
      </trkpt>
      <trkpt lat="43.85227" lon="5.43515">
        <ele>585.58</ele>
        <time>2013-05-05T07:51:14Z</time>
      </trkpt>
      <trkpt lat="43.85211" lon="5.43523">
        <ele>586.06</ele>
        <time>2013-05-05T07:51:30Z</time>
      </trkpt>
      <trkpt lat="43.85195" lon="5.43533">
        <ele>586.06</ele>
        <time>2013-05-05T07:51:46Z</time>
      </trkpt>
      <trkpt lat="43.85177" lon="5.43548">
        <ele>586.54</ele>
        <time>2013-05-05T07:52:04Z</time>
      </trkpt>
      <trkpt lat="43.85175" lon="5.43549">
        <ele>586.54</ele>
        <time>2013-05-05T07:52:05Z</time>
      </trkpt>
      <trkpt lat="43.85171" lon="5.43549">
        <ele>586.54</ele>
        <time>2013-05-05T07:52:09Z</time>
      </trkpt>
      <trkpt lat="43.85154" lon="5.4356">
        <ele>586.54</ele>
        <time>2013-05-05T07:52:24Z</time>
      </trkpt>
      <trkpt lat="43.85147" lon="5.43557">
        <ele>587.02</ele>
        <time>2013-05-05T07:52:32Z</time>
      </trkpt>
      <trkpt lat="43.8514" lon="5.43558">
        <ele>587.5</ele>
        <time>2013-05-05T07:52:47Z</time>
      </trkpt>
      <trkpt lat="43.85138" lon="5.43561">
        <ele>587.5</ele>
        <time>2013-05-05T07:53:09Z</time>
      </trkpt>
      <trkpt lat="43.8514" lon="5.43557">
        <ele>587.5</ele>
        <time>2013-05-05T07:53:28Z</time>
      </trkpt>
      <trkpt lat="43.85142" lon="5.43553">
        <ele>587.02</ele>
        <time>2013-05-05T07:53:48Z</time>
      </trkpt>
      <trkpt lat="43.85142" lon="5.43553">
        <ele>587.02</ele>
        <time>2013-05-05T07:53:56Z</time>
      </trkpt>
      <trkpt lat="43.85118" lon="5.43549">
        <ele>587.02</ele>
        <time>2013-05-05T07:54:13Z</time>
      </trkpt>
      <trkpt lat="43.85091" lon="5.43543">
        <ele>588.46</ele>
        <time>2013-05-05T07:54:32Z</time>
      </trkpt>
      <trkpt lat="43.85067" lon="5.43536">
        <ele>588.95</ele>
        <time>2013-05-05T07:54:49Z</time>
      </trkpt>
      <trkpt lat="43.85044" lon="5.43533">
        <ele>590.39</ele>
        <time>2013-05-05T07:55:06Z</time>
      </trkpt>
      <trkpt lat="43.85031" lon="5.43521">
        <ele>590.87</ele>
        <time>2013-05-05T07:55:19Z</time>
      </trkpt>
      <trkpt lat="43.85015" lon="5.43514">
        <ele>591.83</ele>
        <time>2013-05-05T07:55:35Z</time>
      </trkpt>
      <trkpt lat="43.85002" lon="5.43506">
        <ele>591.35</ele>
        <time>2013-05-05T07:55:49Z</time>
      </trkpt>
      <trkpt lat="43.84982" lon="5.43499">
        <ele>591.35</ele>
        <time>2013-05-05T07:56:06Z</time>
      </trkpt>
      <trkpt lat="43.84965" lon="5.43492">
        <ele>589.43</ele>
        <time>2013-05-05T07:56:21Z</time>
      </trkpt>
      <trkpt lat="43.84964" lon="5.43492">
        <ele>588.95</ele>
        <time>2013-05-05T07:56:22Z</time>
      </trkpt>
      <trkpt lat="43.84945" lon="5.43485">
        <ele>588.95</ele>
        <time>2013-05-05T07:56:38Z</time>
      </trkpt>
      <trkpt lat="43.84927" lon="5.43474">
        <ele>587.5</ele>
        <time>2013-05-05T07:56:55Z</time>
      </trkpt>
      <trkpt lat="43.84911" lon="5.43467">
        <ele>587.5</ele>
        <time>2013-05-05T07:57:10Z</time>
      </trkpt>
      <trkpt lat="43.84897" lon="5.43464">
        <ele>587.02</ele>
        <time>2013-05-05T07:57:25Z</time>
      </trkpt>
      <trkpt lat="43.84881" lon="5.43461">
        <ele>587.02</ele>
        <time>2013-05-05T07:57:43Z</time>
      </trkpt>
      <trkpt lat="43.84866" lon="5.43456">
        <ele>586.54</ele>
        <time>2013-05-05T07:58:02Z</time>
      </trkpt>
      <trkpt lat="43.84848" lon="5.43446">
        <ele>586.06</ele>
        <time>2013-05-05T07:58:21Z</time>
      </trkpt>
      <trkpt lat="43.84835" lon="5.43439">
        <ele>588.46</ele>
        <time>2013-05-05T07:58:36Z</time>
      </trkpt>
      <trkpt lat="43.84813" lon="5.43438">
        <ele>589.43</ele>
        <time>2013-05-05T07:58:56Z</time>
      </trkpt>
      <trkpt lat="43.84801" lon="5.43435">
        <ele>590.87</ele>
        <time>2013-05-05T07:59:09Z</time>
      </trkpt>
      <trkpt lat="43.84788" lon="5.43432">
        <ele>591.35</ele>
        <time>2013-05-05T07:59:24Z</time>
      </trkpt>
      <trkpt lat="43.84771" lon="5.43427">
        <ele>591.83</ele>
        <time>2013-05-05T07:59:41Z</time>
      </trkpt>
      <trkpt lat="43.84752" lon="5.43419">
        <ele>592.31</ele>
        <time>2013-05-05T07:59:57Z</time>
      </trkpt>
      <trkpt lat="43.84738" lon="5.43414">
        <ele>591.83</ele>
        <time>2013-05-05T08:00:13Z</time>
      </trkpt>
      <trkpt lat="43.84722" lon="5.43407">
        <ele>592.31</ele>
        <time>2013-05-05T08:00:28Z</time>
      </trkpt>
      <trkpt lat="43.84705" lon="5.43401">
        <ele>590.87</ele>
        <time>2013-05-05T08:00:44Z</time>
      </trkpt>
      <trkpt lat="43.84686" lon="5.43397">
        <ele>589.91</ele>
        <time>2013-05-05T08:01:04Z</time>
      </trkpt>
      <trkpt lat="43.84671" lon="5.43395">
        <ele>587.98</ele>
        <time>2013-05-05T08:01:20Z</time>
      </trkpt>
      <trkpt lat="43.84655" lon="5.43383">
        <ele>587.5</ele>
        <time>2013-05-05T08:01:36Z</time>
      </trkpt>
      <trkpt lat="43.84643" lon="5.43373">
        <ele>589.43</ele>
        <time>2013-05-05T08:01:52Z</time>
      </trkpt>
      <trkpt lat="43.84631" lon="5.43359">
        <ele>589.91</ele>
        <time>2013-05-05T08:02:09Z</time>
      </trkpt>
      <trkpt lat="43.84621" lon="5.43351">
        <ele>590.87</ele>
        <time>2013-05-05T08:02:24Z</time>
      </trkpt>
      <trkpt lat="43.84618" lon="5.43349">
        <ele>590.87</ele>
        <time>2013-05-05T08:02:41Z</time>
      </trkpt>
      <trkpt lat="43.84619" lon="5.4335">
        <ele>590.39</ele>
        <time>2013-05-05T08:03:11Z</time>
      </trkpt>
      <trkpt lat="43.84617" lon="5.43351">
        <ele>590.39</ele>
        <time>2013-05-05T08:03:36Z</time>
      </trkpt>
      <trkpt lat="43.84618" lon="5.4335">
        <ele>590.39</ele>
        <time>2013-05-05T08:04:00Z</time>
      </trkpt>
      <trkpt lat="43.8462" lon="5.43354">
        <ele>588.95</ele>
        <time>2013-05-05T08:04:12Z</time>
      </trkpt>
      <trkpt lat="43.8462" lon="5.43354">
        <ele>588.95</ele>
        <time>2013-05-05T08:04:13Z</time>
      </trkpt>
      <trkpt lat="43.84619" lon="5.43354">
        <ele>592.31</ele>
        <time>2013-05-05T08:04:28Z</time>
      </trkpt>
      <trkpt lat="43.84619" lon="5.43355">
        <ele>588.46</ele>
        <time>2013-05-05T08:04:31Z</time>
      </trkpt>
      <trkpt lat="43.84619" lon="5.43355">
        <ele>589.91</ele>
        <time>2013-05-05T08:04:36Z</time>
      </trkpt>
      <trkpt lat="43.84616" lon="5.43358">
        <ele>589.91</ele>
        <time>2013-05-05T08:04:55Z</time>
      </trkpt>
      <trkpt lat="43.84617" lon="5.43354">
        <ele>588.46</ele>
        <time>2013-05-05T08:05:02Z</time>
      </trkpt>
      <trkpt lat="43.84617" lon="5.43352">
        <ele>588.46</ele>
        <time>2013-05-05T08:05:16Z</time>
      </trkpt>
      <trkpt lat="43.84619" lon="5.4335">
        <ele>588.46</ele>
        <time>2013-05-05T08:05:44Z</time>
      </trkpt>
      <trkpt lat="43.84619" lon="5.43349">
        <ele>588.46</ele>
        <time>2013-05-05T08:06:14Z</time>
      </trkpt>
      <trkpt lat="43.84619" lon="5.43348">
        <ele>588.46</ele>
        <time>2013-05-05T08:06:42Z</time>
      </trkpt>
      <trkpt lat="43.84618" lon="5.43348">
        <ele>588.46</ele>
        <time>2013-05-05T08:07:17Z</time>
      </trkpt>
      <trkpt lat="43.84618" lon="5.43349">
        <ele>588.46</ele>
        <time>2013-05-05T08:07:40Z</time>
      </trkpt>
      <trkpt lat="43.84619" lon="5.43351">
        <ele>588.46</ele>
        <time>2013-05-05T08:07:59Z</time>
      </trkpt>
      <trkpt lat="43.84617" lon="5.43348">
        <ele>588.46</ele>
        <time>2013-05-05T08:08:19Z</time>
      </trkpt>
      <trkpt lat="43.84617" lon="5.43349">
        <ele>588.46</ele>
        <time>2013-05-05T08:08:38Z</time>
      </trkpt>
      <trkpt lat="43.84615" lon="5.43348">
        <ele>588.46</ele>
        <time>2013-05-05T08:08:51Z</time>
      </trkpt>
      <trkpt lat="43.84613" lon="5.43343">
        <ele>588.46</ele>
        <time>2013-05-05T08:09:11Z</time>
      </trkpt>
      <trkpt lat="43.84613" lon="5.4334">
        <ele>588.46</ele>
        <time>2013-05-05T08:09:29Z</time>
      </trkpt>
      <trkpt lat="43.84611" lon="5.43339">
        <ele>588.46</ele>
        <time>2013-05-05T08:09:45Z</time>
      </trkpt>
      <trkpt lat="43.84606" lon="5.43337">
        <ele>587.98</ele>
        <time>2013-05-05T08:10:01Z</time>
      </trkpt>
      <trkpt lat="43.84601" lon="5.4333">
        <ele>587.98</ele>
        <time>2013-05-05T08:10:14Z</time>
      </trkpt>
      <trkpt lat="43.8459" lon="5.43325">
        <ele>587.5</ele>
        <time>2013-05-05T08:10:31Z</time>
      </trkpt>
      <trkpt lat="43.84576" lon="5.43324">
        <ele>587.5</ele>
        <time>2013-05-05T08:10:47Z</time>
      </trkpt>
      <trkpt lat="43.84562" lon="5.43322">
        <ele>587.5</ele>
        <time>2013-05-05T08:11:02Z</time>
      </trkpt>
      <trkpt lat="43.84548" lon="5.43322">
        <ele>587.5</ele>
        <time>2013-05-05T08:11:14Z</time>
      </trkpt>
      <trkpt lat="43.84532" lon="5.4332">
        <ele>587.02</ele>
        <time>2013-05-05T08:11:29Z</time>
      </trkpt>
      <trkpt lat="43.84522" lon="5.4332">
        <ele>586.54</ele>
        <time>2013-05-05T08:11:38Z</time>
      </trkpt>
      <trkpt lat="43.84503" lon="5.4332">
        <ele>585.58</ele>
        <time>2013-05-05T08:11:55Z</time>
      </trkpt>
      <trkpt lat="43.84499" lon="5.43324">
        <ele>585.1</ele>
        <time>2013-05-05T08:12:13Z</time>
      </trkpt>
      <trkpt lat="43.84496" lon="5.43325">
        <ele>585.1</ele>
        <time>2013-05-05T08:12:28Z</time>
      </trkpt>
      <trkpt lat="43.84486" lon="5.43326">
        <ele>583.66</ele>
        <time>2013-05-05T08:12:42Z</time>
      </trkpt>
      <trkpt lat="43.84473" lon="5.43331">
        <ele>583.66</ele>
        <time>2013-05-05T08:12:55Z</time>
      </trkpt>
      <trkpt lat="43.84455" lon="5.43339">
        <ele>582.7</ele>
        <time>2013-05-05T08:13:12Z</time>
      </trkpt>
      <trkpt lat="43.84441" lon="5.43339">
        <ele>582.22</ele>
        <time>2013-05-05T08:13:26Z</time>
      </trkpt>
      <trkpt lat="43.84432" lon="5.43341">
        <ele>581.25</ele>
        <time>2013-05-05T08:13:41Z</time>
      </trkpt>
      <trkpt lat="43.84417" lon="5.43347">
        <ele>580.77</ele>
        <time>2013-05-05T08:13:59Z</time>
      </trkpt>
      <trkpt lat="43.84401" lon="5.43356">
        <ele>580.77</ele>
        <time>2013-05-05T08:14:18Z</time>
      </trkpt>
      <trkpt lat="43.84396" lon="5.4336">
        <ele>580.29</ele>
        <time>2013-05-05T08:14:24Z</time>
      </trkpt>
      <trkpt lat="43.84387" lon="5.43373">
        <ele>576.93</ele>
        <time>2013-05-05T08:14:39Z</time>
      </trkpt>
      <trkpt lat="43.84382" lon="5.43373">
        <ele>574.04</ele>
        <time>2013-05-05T08:14:48Z</time>
      </trkpt>
      <trkpt lat="43.84381" lon="5.43367">
        <ele>572.12</ele>
        <time>2013-05-05T08:14:53Z</time>
      </trkpt>
      <trkpt lat="43.84375" lon="5.43351">
        <ele>568.76</ele>
        <time>2013-05-05T08:15:08Z</time>
      </trkpt>
      <trkpt lat="43.84368" lon="5.43343">
        <ele>568.76</ele>
        <time>2013-05-05T08:15:27Z</time>
      </trkpt>
      <trkpt lat="43.84365" lon="5.43342">
        <ele>568.76</ele>
        <time>2013-05-05T08:15:52Z</time>
      </trkpt>
      <trkpt lat="43.84371" lon="5.43342">
        <ele>568.28</ele>
        <time>2013-05-05T08:16:14Z</time>
      </trkpt>
      <trkpt lat="43.84376" lon="5.43344">
        <ele>567.8</ele>
        <time>2013-05-05T08:16:31Z</time>
      </trkpt>
      <trkpt lat="43.84374" lon="5.43353">
        <ele>567.8</ele>
        <time>2013-05-05T08:16:48Z</time>
      </trkpt>
      <trkpt lat="43.84375" lon="5.43364">
        <ele>571.16</ele>
        <time>2013-05-05T08:17:07Z</time>
      </trkpt>
      <trkpt lat="43.8438" lon="5.43374">
        <ele>574.53</ele>
        <time>2013-05-05T08:17:19Z</time>
      </trkpt>
      <trkpt lat="43.84383" lon="5.43376">
        <ele>576.45</ele>
        <time>2013-05-05T08:17:35Z</time>
      </trkpt>
      <trkpt lat="43.84391" lon="5.4336">
        <ele>578.37</ele>
        <time>2013-05-05T08:17:54Z</time>
      </trkpt>
      <trkpt lat="43.84405" lon="5.43351">
        <ele>579.33</ele>
        <time>2013-05-05T08:18:12Z</time>
      </trkpt>
      <trkpt lat="43.84416" lon="5.4334">
        <ele>578.37</ele>
        <time>2013-05-05T08:18:29Z</time>
      </trkpt>
      <trkpt lat="43.84431" lon="5.43336">
        <ele>579.33</ele>
        <time>2013-05-05T08:18:44Z</time>
      </trkpt>
      <trkpt lat="43.84443" lon="5.43338">
        <ele>579.81</ele>
        <time>2013-05-05T08:18:58Z</time>
      </trkpt>
      <trkpt lat="43.84455" lon="5.43335">
        <ele>579.81</ele>
        <time>2013-05-05T08:19:15Z</time>
      </trkpt>
      <trkpt lat="43.84462" lon="5.43333">
        <ele>580.29</ele>
        <time>2013-05-05T08:19:31Z</time>
      </trkpt>
      <trkpt lat="43.84477" lon="5.43326">
        <ele>580.29</ele>
        <time>2013-05-05T08:19:50Z</time>
      </trkpt>
      <trkpt lat="43.84493" lon="5.43321">
        <ele>581.73</ele>
        <time>2013-05-05T08:20:06Z</time>
      </trkpt>
      <trkpt lat="43.84497" lon="5.43317">
        <ele>581.73</ele>
        <time>2013-05-05T08:20:22Z</time>
      </trkpt>
      <trkpt lat="43.84498" lon="5.43319">
        <ele>581.73</ele>
        <time>2013-05-05T08:20:41Z</time>
      </trkpt>
      <trkpt lat="43.84501" lon="5.43307">
        <ele>581.73</ele>
        <time>2013-05-05T08:20:56Z</time>
      </trkpt>
      <trkpt lat="43.84502" lon="5.43303">
        <ele>581.73</ele>
        <time>2013-05-05T08:21:09Z</time>
      </trkpt>
      <trkpt lat="43.84502" lon="5.43299">
        <ele>581.73</ele>
        <time>2013-05-05T08:21:29Z</time>
      </trkpt>
      <trkpt lat="43.84502" lon="5.43289">
        <ele>581.73</ele>
        <time>2013-05-05T08:21:43Z</time>
      </trkpt>
      <trkpt lat="43.84504" lon="5.43259">
        <ele>581.73</ele>
        <time>2013-05-05T08:22:03Z</time>
      </trkpt>
      <trkpt lat="43.84506" lon="5.43234">
        <ele>581.73</ele>
        <time>2013-05-05T08:22:20Z</time>
      </trkpt>
      <trkpt lat="43.8451" lon="5.43213">
        <ele>581.73</ele>
        <time>2013-05-05T08:22:34Z</time>
      </trkpt>
      <trkpt lat="43.8451" lon="5.43201">
        <ele>581.73</ele>
        <time>2013-05-05T08:22:42Z</time>
      </trkpt>
      <trkpt lat="43.84512" lon="5.43187">
        <ele>581.73</ele>
        <time>2013-05-05T08:22:50Z</time>
      </trkpt>
      <trkpt lat="43.84512" lon="5.43157">
        <ele>581.73</ele>
        <time>2013-05-05T08:23:07Z</time>
      </trkpt>
      <trkpt lat="43.84514" lon="5.43129">
        <ele>581.73</ele>
        <time>2013-05-05T08:23:24Z</time>
      </trkpt>
      <trkpt lat="43.84516" lon="5.43102">
        <ele>581.73</ele>
        <time>2013-05-05T08:23:41Z</time>
      </trkpt>
      <trkpt lat="43.84516" lon="5.431">
        <ele>581.73</ele>
        <time>2013-05-05T08:23:42Z</time>
      </trkpt>
      <trkpt lat="43.84518" lon="5.43086">
        <ele>582.22</ele>
        <time>2013-05-05T08:23:51Z</time>
      </trkpt>
      <trkpt lat="43.84519" lon="5.4306">
        <ele>582.7</ele>
        <time>2013-05-05T08:24:09Z</time>
      </trkpt>
      <trkpt lat="43.8452" lon="5.43034">
        <ele>583.18</ele>
        <time>2013-05-05T08:24:26Z</time>
      </trkpt>
      <trkpt lat="43.84523" lon="5.43006">
        <ele>583.18</ele>
        <time>2013-05-05T08:24:43Z</time>
      </trkpt>
      <trkpt lat="43.84525" lon="5.42978">
        <ele>583.18</ele>
        <time>2013-05-05T08:25:00Z</time>
      </trkpt>
      <trkpt lat="43.84528" lon="5.4295">
        <ele>583.18</ele>
        <time>2013-05-05T08:25:17Z</time>
      </trkpt>
      <trkpt lat="43.84529" lon="5.42917">
        <ele>583.18</ele>
        <time>2013-05-05T08:25:33Z</time>
      </trkpt>
      <trkpt lat="43.84532" lon="5.42901">
        <ele>581.73</ele>
        <time>2013-05-05T08:25:48Z</time>
      </trkpt>
      <trkpt lat="43.84535" lon="5.42874">
        <ele>581.73</ele>
        <time>2013-05-05T08:26:05Z</time>
      </trkpt>
      <trkpt lat="43.84538" lon="5.42844">
        <ele>581.25</ele>
        <time>2013-05-05T08:26:23Z</time>
      </trkpt>
      <trkpt lat="43.8454" lon="5.42813">
        <ele>581.25</ele>
        <time>2013-05-05T08:26:41Z</time>
      </trkpt>
      <trkpt lat="43.84541" lon="5.42792">
        <ele>580.77</ele>
        <time>2013-05-05T08:26:54Z</time>
      </trkpt>
      <trkpt lat="43.84542" lon="5.42779">
        <ele>580.77</ele>
        <time>2013-05-05T08:27:07Z</time>
      </trkpt>
      <trkpt lat="43.84544" lon="5.42761">
        <ele>580.77</ele>
        <time>2013-05-05T08:27:21Z</time>
      </trkpt>
      <trkpt lat="43.84546" lon="5.42738">
        <ele>580.29</ele>
        <time>2013-05-05T08:27:36Z</time>
      </trkpt>
      <trkpt lat="43.84547" lon="5.4273">
        <ele>580.29</ele>
        <time>2013-05-05T08:27:42Z</time>
      </trkpt>
      <trkpt lat="43.84546" lon="5.42728">
        <ele>580.29</ele>
        <time>2013-05-05T08:27:44Z</time>
      </trkpt>
      <trkpt lat="43.84542" lon="5.42723">
        <ele>579.81</ele>
        <time>2013-05-05T08:27:50Z</time>
      </trkpt>
      <trkpt lat="43.84525" lon="5.42722">
        <ele>579.81</ele>
        <time>2013-05-05T08:28:05Z</time>
      </trkpt>
      <trkpt lat="43.84508" lon="5.42723">
        <ele>579.81</ele>
        <time>2013-05-05T08:28:20Z</time>
      </trkpt>
      <trkpt lat="43.84492" lon="5.4273">
        <ele>578.85</ele>
        <time>2013-05-05T08:28:37Z</time>
      </trkpt>
      <trkpt lat="43.84477" lon="5.42739">
        <ele>578.37</ele>
        <time>2013-05-05T08:28:54Z</time>
      </trkpt>
      <trkpt lat="43.84464" lon="5.42746">
        <ele>577.41</ele>
        <time>2013-05-05T08:29:11Z</time>
      </trkpt>
      <trkpt lat="43.84448" lon="5.42756">
        <ele>575.49</ele>
        <time>2013-05-05T08:29:29Z</time>
      </trkpt>
      <trkpt lat="43.84438" lon="5.42764">
        <ele>575.01</ele>
        <time>2013-05-05T08:29:43Z</time>
      </trkpt>
      <trkpt lat="43.84434" lon="5.4276">
        <ele>573.56</ele>
        <time>2013-05-05T08:29:58Z</time>
      </trkpt>
      <trkpt lat="43.84422" lon="5.4276">
        <ele>572.12</ele>
        <time>2013-05-05T08:30:15Z</time>
      </trkpt>
      <trkpt lat="43.84406" lon="5.42757">
        <ele>569.24</ele>
        <time>2013-05-05T08:30:33Z</time>
      </trkpt>
      <trkpt lat="43.84396" lon="5.42755">
        <ele>567.32</ele>
        <time>2013-05-05T08:30:51Z</time>
      </trkpt>
      <trkpt lat="43.84386" lon="5.42754">
        <ele>565.87</ele>
        <time>2013-05-05T08:31:06Z</time>
      </trkpt>
      <trkpt lat="43.84384" lon="5.4276">
        <ele>563.95</ele>
        <time>2013-05-05T08:31:20Z</time>
      </trkpt>
      <trkpt lat="43.84394" lon="5.42775">
        <ele>561.55</ele>
        <time>2013-05-05T08:31:39Z</time>
      </trkpt>
      <trkpt lat="43.84393" lon="5.42787">
        <ele>561.07</ele>
        <time>2013-05-05T08:32:02Z</time>
      </trkpt>
      <trkpt lat="43.84394" lon="5.42787">
        <ele>560.59</ele>
        <time>2013-05-05T08:32:19Z</time>
      </trkpt>
      <trkpt lat="43.84394" lon="5.42787">
        <ele>560.59</ele>
        <time>2013-05-05T08:32:35Z</time>
      </trkpt>
      <trkpt lat="43.84391" lon="5.42787">
        <ele>560.59</ele>
        <time>2013-05-05T08:32:54Z</time>
      </trkpt>
      <trkpt lat="43.84393" lon="5.4279">
        <ele>560.11</ele>
        <time>2013-05-05T08:33:15Z</time>
      </trkpt>
      <trkpt lat="43.84386" lon="5.42796">
        <ele>558.66</ele>
        <time>2013-05-05T08:33:42Z</time>
      </trkpt>
      <trkpt lat="43.84379" lon="5.42804">
        <ele>556.26</ele>
        <time>2013-05-05T08:33:58Z</time>
      </trkpt>
      <trkpt lat="43.84371" lon="5.42812">
        <ele>553.38</ele>
        <time>2013-05-05T08:34:11Z</time>
      </trkpt>
      <trkpt lat="43.84359" lon="5.42823">
        <ele>550.49</ele>
        <time>2013-05-05T08:34:27Z</time>
      </trkpt>
      <trkpt lat="43.84347" lon="5.42832">
        <ele>547.61</ele>
        <time>2013-05-05T08:34:46Z</time>
      </trkpt>
      <trkpt lat="43.84334" lon="5.42841">
        <ele>544.72</ele>
        <time>2013-05-05T08:35:05Z</time>
      </trkpt>
      <trkpt lat="43.84322" lon="5.42849">
        <ele>541.84</ele>
        <time>2013-05-05T08:35:23Z</time>
      </trkpt>
      <trkpt lat="43.84317" lon="5.42837">
        <ele>539.92</ele>
        <time>2013-05-05T08:35:39Z</time>
      </trkpt>
      <trkpt lat="43.84309" lon="5.42823">
        <ele>538.96</ele>
        <time>2013-05-05T08:35:58Z</time>
      </trkpt>
      <trkpt lat="43.84309" lon="5.42821">
        <ele>537.99</ele>
        <time>2013-05-05T08:36:23Z</time>
      </trkpt>
      <trkpt lat="43.84305" lon="5.4282">
        <ele>537.99</ele>
        <time>2013-05-05T08:36:44Z</time>
      </trkpt>
      <trkpt lat="43.84297" lon="5.4281">
        <ele>536.55</ele>
        <time>2013-05-05T08:37:05Z</time>
      </trkpt>
      <trkpt lat="43.84283" lon="5.42809">
        <ele>533.67</ele>
        <time>2013-05-05T08:37:20Z</time>
      </trkpt>
      <trkpt lat="43.84268" lon="5.4281">
        <ele>532.23</ele>
        <time>2013-05-05T08:37:37Z</time>
      </trkpt>
      <trkpt lat="43.8426" lon="5.42806">
        <ele>530.79</ele>
        <time>2013-05-05T08:37:53Z</time>
      </trkpt>
      <trkpt lat="43.84255" lon="5.42798">
        <ele>529.82</ele>
        <time>2013-05-05T08:38:14Z</time>
      </trkpt>
      <trkpt lat="43.8424" lon="5.42788">
        <ele>528.38</ele>
        <time>2013-05-05T08:38:31Z</time>
      </trkpt>
      <trkpt lat="43.84232" lon="5.4278">
        <ele>527.42</ele>
        <time>2013-05-05T08:38:47Z</time>
      </trkpt>
      <trkpt lat="43.84225" lon="5.42768">
        <ele>527.42</ele>
        <time>2013-05-05T08:39:01Z</time>
      </trkpt>
      <trkpt lat="43.84208" lon="5.42755">
        <ele>527.42</ele>
        <time>2013-05-05T08:39:20Z</time>
      </trkpt>
      <trkpt lat="43.84195" lon="5.42739">
        <ele>526.46</ele>
        <time>2013-05-05T08:39:37Z</time>
      </trkpt>
      <trkpt lat="43.84179" lon="5.42726">
        <ele>525.98</ele>
        <time>2013-05-05T08:39:55Z</time>
      </trkpt>
      <trkpt lat="43.84169" lon="5.42719">
        <ele>525.98</ele>
        <time>2013-05-05T08:40:07Z</time>
      </trkpt>
      <trkpt lat="43.84154" lon="5.42704">
        <ele>525.02</ele>
        <time>2013-05-05T08:40:23Z</time>
      </trkpt>
      <trkpt lat="43.8414" lon="5.42689">
        <ele>525.02</ele>
        <time>2013-05-05T08:40:39Z</time>
      </trkpt>
      <trkpt lat="43.84129" lon="5.42673">
        <ele>525.98</ele>
        <time>2013-05-05T08:40:55Z</time>
      </trkpt>
      <trkpt lat="43.8412" lon="5.4266">
        <ele>524.54</ele>
        <time>2013-05-05T08:41:08Z</time>
      </trkpt>
      <trkpt lat="43.84106" lon="5.42639">
        <ele>523.09</ele>
        <time>2013-05-05T08:41:24Z</time>
      </trkpt>
      <trkpt lat="43.84097" lon="5.42626">
        <ele>522.13</ele>
        <time>2013-05-05T08:41:37Z</time>
      </trkpt>
      <trkpt lat="43.84085" lon="5.42611">
        <ele>520.21</ele>
        <time>2013-05-05T08:41:52Z</time>
      </trkpt>
      <trkpt lat="43.84075" lon="5.4259">
        <ele>518.77</ele>
        <time>2013-05-05T08:42:08Z</time>
      </trkpt>
      <trkpt lat="43.84068" lon="5.42574">
        <ele>517.33</ele>
        <time>2013-05-05T08:42:21Z</time>
      </trkpt>
      <trkpt lat="43.84057" lon="5.42557">
        <ele>516.37</ele>
        <time>2013-05-05T08:42:36Z</time>
      </trkpt>
      <trkpt lat="43.84053" lon="5.42545">
        <ele>516.37</ele>
        <time>2013-05-05T08:42:50Z</time>
      </trkpt>
      <trkpt lat="43.84051" lon="5.42542">
        <ele>516.37</ele>
        <time>2013-05-05T08:43:09Z</time>
      </trkpt>
      <trkpt lat="43.8405" lon="5.42538">
        <ele>516.37</ele>
        <time>2013-05-05T08:43:33Z</time>
      </trkpt>
      <trkpt lat="43.8405" lon="5.4253">
        <ele>516.37</ele>
        <time>2013-05-05T08:43:54Z</time>
      </trkpt>
      <trkpt lat="43.84049" lon="5.42523">
        <ele>516.37</ele>
        <time>2013-05-05T08:44:12Z</time>
      </trkpt>
      <trkpt lat="43.84045" lon="5.42505">
        <ele>516.37</ele>
        <time>2013-05-05T08:44:23Z</time>
      </trkpt>
      <trkpt lat="43.84044" lon="5.42494">
        <ele>516.37</ele>
        <time>2013-05-05T08:44:29Z</time>
      </trkpt>
      <trkpt lat="43.84044" lon="5.42468">
        <ele>516.37</ele>
        <time>2013-05-05T08:44:44Z</time>
      </trkpt>
      <trkpt lat="43.84044" lon="5.42463">
        <ele>516.37</ele>
        <time>2013-05-05T08:44:47Z</time>
      </trkpt>
      <trkpt lat="43.84044" lon="5.42442">
        <ele>517.81</ele>
        <time>2013-05-05T08:45:02Z</time>
      </trkpt>
      <trkpt lat="43.84048" lon="5.42431">
        <ele>517.81</ele>
        <time>2013-05-05T08:45:15Z</time>
      </trkpt>
      <trkpt lat="43.84047" lon="5.42428">
        <ele>517.81</ele>
        <time>2013-05-05T08:45:29Z</time>
      </trkpt>
      <trkpt lat="43.84048" lon="5.42427">
        <ele>517.81</ele>
        <time>2013-05-05T08:45:44Z</time>
      </trkpt>
      <trkpt lat="43.84046" lon="5.42426">
        <ele>517.81</ele>
        <time>2013-05-05T08:46:07Z</time>
      </trkpt>
      <trkpt lat="43.84044" lon="5.4242">
        <ele>517.81</ele>
        <time>2013-05-05T08:46:12Z</time>
      </trkpt>
      <trkpt lat="43.84034" lon="5.42399">
        <ele>515.88</ele>
        <time>2013-05-05T08:46:29Z</time>
      </trkpt>
      <trkpt lat="43.84029" lon="5.42379">
        <ele>514.92</ele>
        <time>2013-05-05T08:46:44Z</time>
      </trkpt>
      <trkpt lat="43.84024" lon="5.42362">
        <ele>513.48</ele>
        <time>2013-05-05T08:46:56Z</time>
      </trkpt>
      <trkpt lat="43.84014" lon="5.42337">
        <ele>512.04</ele>
        <time>2013-05-05T08:47:14Z</time>
      </trkpt>
      <trkpt lat="43.83994" lon="5.42322">
        <ele>510.12</ele>
        <time>2013-05-05T08:47:32Z</time>
      </trkpt>
      <trkpt lat="43.83978" lon="5.42314">
        <ele>509.16</ele>
        <time>2013-05-05T08:47:46Z</time>
      </trkpt>
      <trkpt lat="43.83959" lon="5.42306">
        <ele>508.19</ele>
        <time>2013-05-05T08:48:02Z</time>
      </trkpt>
      <trkpt lat="43.83949" lon="5.423">
        <ele>508.19</ele>
        <time>2013-05-05T08:48:14Z</time>
      </trkpt>
      <trkpt lat="43.83948" lon="5.42298">
        <ele>508.19</ele>
        <time>2013-05-05T08:48:16Z</time>
      </trkpt>
      <trkpt lat="43.83944" lon="5.42294">
        <ele>508.19</ele>
        <time>2013-05-05T08:48:21Z</time>
      </trkpt>
      <trkpt lat="43.83935" lon="5.42273">
        <ele>508.19</ele>
        <time>2013-05-05T08:48:36Z</time>
      </trkpt>
      <trkpt lat="43.83928" lon="5.42252">
        <ele>508.19</ele>
        <time>2013-05-05T08:48:50Z</time>
      </trkpt>
      <trkpt lat="43.83926" lon="5.42248">
        <ele>508.19</ele>
        <time>2013-05-05T08:48:53Z</time>
      </trkpt>
      <trkpt lat="43.83917" lon="5.42222">
        <ele>507.23</ele>
        <time>2013-05-05T08:49:11Z</time>
      </trkpt>
      <trkpt lat="43.83909" lon="5.42199">
        <ele>507.23</ele>
        <time>2013-05-05T08:49:26Z</time>
      </trkpt>
      <trkpt lat="43.839" lon="5.4218">
        <ele>507.23</ele>
        <time>2013-05-05T08:49:39Z</time>
      </trkpt>
      <trkpt lat="43.83895" lon="5.4216">
        <ele>507.23</ele>
        <time>2013-05-05T08:49:53Z</time>
      </trkpt>
      <trkpt lat="43.83892" lon="5.42148">
        <ele>506.27</ele>
        <time>2013-05-05T08:50:08Z</time>
      </trkpt>
      <trkpt lat="43.83891" lon="5.42145">
        <ele>505.79</ele>
        <time>2013-05-05T08:50:12Z</time>
      </trkpt>
      <trkpt lat="43.83885" lon="5.42134">
        <ele>504.83</ele>
        <time>2013-05-05T08:50:21Z</time>
      </trkpt>
      <trkpt lat="43.83877" lon="5.42109">
        <ele>503.87</ele>
        <time>2013-05-05T08:50:37Z</time>
      </trkpt>
      <trkpt lat="43.83871" lon="5.42085">
        <ele>502.43</ele>
        <time>2013-05-05T08:50:54Z</time>
      </trkpt>
      <trkpt lat="43.83864" lon="5.42061">
        <ele>500.98</ele>
        <time>2013-05-05T08:51:12Z</time>
      </trkpt>
      <trkpt lat="43.8386" lon="5.42039">
        <ele>500.02</ele>
        <time>2013-05-05T08:51:31Z</time>
      </trkpt>
      <trkpt lat="43.83859" lon="5.42035">
        <ele>499.54</ele>
        <time>2013-05-05T08:51:50Z</time>
      </trkpt>
      <trkpt lat="43.83856" lon="5.42035">
        <ele>499.06</ele>
        <time>2013-05-05T08:52:15Z</time>
      </trkpt>
      <trkpt lat="43.83859" lon="5.42032">
        <ele>499.06</ele>
        <time>2013-05-05T08:52:37Z</time>
      </trkpt>
      <trkpt lat="43.83856" lon="5.42033">
        <ele>499.06</ele>
        <time>2013-05-05T08:53:05Z</time>
      </trkpt>
      <trkpt lat="43.83856" lon="5.42035">
        <ele>499.06</ele>
        <time>2013-05-05T08:53:29Z</time>
      </trkpt>
      <trkpt lat="43.83856" lon="5.42033">
        <ele>499.06</ele>
        <time>2013-05-05T08:53:52Z</time>
      </trkpt>
      <trkpt lat="43.83856" lon="5.42034">
        <ele>499.06</ele>
        <time>2013-05-05T08:54:17Z</time>
      </trkpt>
      <trkpt lat="43.83854" lon="5.42028">
        <ele>499.06</ele>
        <time>2013-05-05T08:54:32Z</time>
      </trkpt>
      <trkpt lat="43.83849" lon="5.42001">
        <ele>497.14</ele>
        <time>2013-05-05T08:54:47Z</time>
      </trkpt>
      <trkpt lat="43.83833" lon="5.41981">
        <ele>495.7</ele>
        <time>2013-05-05T08:55:02Z</time>
      </trkpt>
      <trkpt lat="43.8383" lon="5.41977">
        <ele>495.7</ele>
        <time>2013-05-05T08:55:05Z</time>
      </trkpt>
      <trkpt lat="43.83826" lon="5.41974">
        <ele>495.7</ele>
        <time>2013-05-05T08:55:08Z</time>
      </trkpt>
      <trkpt lat="43.83814" lon="5.41951">
        <ele>494.74</ele>
        <time>2013-05-05T08:55:24Z</time>
      </trkpt>
      <trkpt lat="43.83805" lon="5.41936">
        <ele>493.77</ele>
        <time>2013-05-05T08:55:35Z</time>
      </trkpt>
      <trkpt lat="43.83795" lon="5.41921">
        <ele>493.77</ele>
        <time>2013-05-05T08:55:47Z</time>
      </trkpt>
      <trkpt lat="43.8378" lon="5.41898">
        <ele>492.81</ele>
        <time>2013-05-05T08:56:05Z</time>
      </trkpt>
      <trkpt lat="43.83771" lon="5.41883">
        <ele>492.33</ele>
        <time>2013-05-05T08:56:17Z</time>
      </trkpt>
      <trkpt lat="43.83769" lon="5.41882">
        <ele>491.85</ele>
        <time>2013-05-05T08:56:19Z</time>
      </trkpt>
      <trkpt lat="43.83756" lon="5.41861">
        <ele>491.37</ele>
        <time>2013-05-05T08:56:35Z</time>
      </trkpt>
      <trkpt lat="43.8374" lon="5.41848">
        <ele>490.89</ele>
        <time>2013-05-05T08:56:51Z</time>
      </trkpt>
      <trkpt lat="43.83739" lon="5.41846">
        <ele>490.89</ele>
        <time>2013-05-05T08:56:53Z</time>
      </trkpt>
      <trkpt lat="43.83723" lon="5.41828">
        <ele>490.41</ele>
        <time>2013-05-05T08:57:10Z</time>
      </trkpt>
      <trkpt lat="43.83711" lon="5.41809">
        <ele>490.41</ele>
        <time>2013-05-05T08:57:25Z</time>
      </trkpt>
      <trkpt lat="43.83707" lon="5.41797">
        <ele>489.93</ele>
        <time>2013-05-05T08:57:33Z</time>
      </trkpt>
      <trkpt lat="43.83707" lon="5.41769">
        <ele>489.45</ele>
        <time>2013-05-05T08:57:50Z</time>
      </trkpt>
      <trkpt lat="43.83712" lon="5.41749">
        <ele>488.49</ele>
        <time>2013-05-05T08:58:04Z</time>
      </trkpt>
      <trkpt lat="43.83719" lon="5.4173">
        <ele>487.53</ele>
        <time>2013-05-05T08:58:18Z</time>
      </trkpt>
      <trkpt lat="43.83714" lon="5.4172">
        <ele>487.53</ele>
        <time>2013-05-05T08:58:26Z</time>
      </trkpt>
      <trkpt lat="43.83711" lon="5.41716">
        <ele>487.53</ele>
        <time>2013-05-05T08:58:29Z</time>
      </trkpt>
      <trkpt lat="43.83703" lon="5.41693">
        <ele>487.05</ele>
        <time>2013-05-05T08:58:42Z</time>
      </trkpt>
      <trkpt lat="43.83693" lon="5.41668">
        <ele>486.56</ele>
        <time>2013-05-05T08:58:57Z</time>
      </trkpt>
      <trkpt lat="43.83685" lon="5.41645">
        <ele>485.6</ele>
        <time>2013-05-05T08:59:11Z</time>
      </trkpt>
      <trkpt lat="43.83677" lon="5.41623">
        <ele>485.12</ele>
        <time>2013-05-05T08:59:25Z</time>
      </trkpt>
      <trkpt lat="43.8367" lon="5.41602">
        <ele>485.12</ele>
        <time>2013-05-05T08:59:42Z</time>
      </trkpt>
      <trkpt lat="43.8367" lon="5.41582">
        <ele>485.12</ele>
        <time>2013-05-05T08:59:56Z</time>
      </trkpt>
      <trkpt lat="43.83675" lon="5.41554">
        <ele>485.12</ele>
        <time>2013-05-05T09:00:15Z</time>
      </trkpt>
      <trkpt lat="43.83679" lon="5.41534">
        <ele>484.64</ele>
        <time>2013-05-05T09:00:30Z</time>
      </trkpt>
      <trkpt lat="43.83686" lon="5.41513">
        <ele>482.72</ele>
        <time>2013-05-05T09:00:46Z</time>
      </trkpt>
      <trkpt lat="43.83685" lon="5.41492">
        <ele>481.76</ele>
        <time>2013-05-05T09:01:01Z</time>
      </trkpt>
      <trkpt lat="43.83682" lon="5.4147">
        <ele>481.28</ele>
        <time>2013-05-05T09:01:15Z</time>
      </trkpt>
      <trkpt lat="43.83688" lon="5.41442">
        <ele>480.8</ele>
        <time>2013-05-05T09:01:32Z</time>
      </trkpt>
      <trkpt lat="43.83698" lon="5.41421">
        <ele>479.35</ele>
        <time>2013-05-05T09:01:47Z</time>
      </trkpt>
      <trkpt lat="43.83699" lon="5.41418">
        <ele>479.35</ele>
        <time>2013-05-05T09:01:49Z</time>
      </trkpt>
      <trkpt lat="43.83705" lon="5.41404">
        <ele>479.35</ele>
        <time>2013-05-05T09:01:58Z</time>
      </trkpt>
      <trkpt lat="43.83705" lon="5.41386">
        <ele>478.39</ele>
        <time>2013-05-05T09:02:08Z</time>
      </trkpt>
      <trkpt lat="43.83702" lon="5.41361">
        <ele>478.39</ele>
        <time>2013-05-05T09:02:23Z</time>
      </trkpt>
      <trkpt lat="43.83703" lon="5.41344">
        <ele>476.47</ele>
        <time>2013-05-05T09:02:40Z</time>
      </trkpt>
      <trkpt lat="43.83707" lon="5.41333">
        <ele>475.99</ele>
        <time>2013-05-05T09:02:57Z</time>
      </trkpt>
      <trkpt lat="43.83711" lon="5.4133">
        <ele>475.51</ele>
        <time>2013-05-05T09:03:13Z</time>
      </trkpt>
      <trkpt lat="43.83711" lon="5.41331">
        <ele>475.51</ele>
        <time>2013-05-05T09:03:29Z</time>
      </trkpt>
      <trkpt lat="43.83708" lon="5.41333">
        <ele>475.51</ele>
        <time>2013-05-05T09:03:54Z</time>
      </trkpt>
      <trkpt lat="43.83705" lon="5.41332">
        <ele>475.51</ele>
        <time>2013-05-05T09:04:13Z</time>
      </trkpt>
      <trkpt lat="43.83704" lon="5.41333">
        <ele>475.99</ele>
        <time>2013-05-05T09:04:38Z</time>
      </trkpt>
      <trkpt lat="43.83707" lon="5.41322">
        <ele>475.99</ele>
        <time>2013-05-05T09:04:58Z</time>
      </trkpt>
      <trkpt lat="43.83709" lon="5.41316">
        <ele>475.99</ele>
        <time>2013-05-05T09:05:15Z</time>
      </trkpt>
      <trkpt lat="43.83709" lon="5.41301">
        <ele>476.47</ele>
        <time>2013-05-05T09:05:34Z</time>
      </trkpt>
      <trkpt lat="43.8372" lon="5.4128">
        <ele>476.47</ele>
        <time>2013-05-05T09:05:50Z</time>
      </trkpt>
      <trkpt lat="43.83729" lon="5.41261">
        <ele>475.03</ele>
        <time>2013-05-05T09:06:10Z</time>
      </trkpt>
      <trkpt lat="43.83727" lon="5.41252">
        <ele>474.55</ele>
        <time>2013-05-05T09:06:28Z</time>
      </trkpt>
      <trkpt lat="43.83735" lon="5.41243">
        <ele>474.55</ele>
        <time>2013-05-05T09:06:51Z</time>
      </trkpt>
      <trkpt lat="43.83741" lon="5.41223">
        <ele>474.55</ele>
        <time>2013-05-05T09:07:09Z</time>
      </trkpt>
      <trkpt lat="43.83745" lon="5.41197">
        <ele>474.55</ele>
        <time>2013-05-05T09:07:25Z</time>
      </trkpt>
      <trkpt lat="43.83739" lon="5.41194">
        <ele>475.51</ele>
        <time>2013-05-05T09:07:41Z</time>
      </trkpt>
      <trkpt lat="43.83737" lon="5.41192">
        <ele>474.07</ele>
        <time>2013-05-05T09:07:45Z</time>
      </trkpt>
      <trkpt lat="43.83736" lon="5.41169">
        <ele>474.07</ele>
        <time>2013-05-05T09:08:01Z</time>
      </trkpt>
      <trkpt lat="43.83738" lon="5.41152">
        <ele>472.63</ele>
        <time>2013-05-05T09:08:19Z</time>
      </trkpt>
      <trkpt lat="43.83738" lon="5.41139">
        <ele>472.63</ele>
        <time>2013-05-05T09:08:40Z</time>
      </trkpt>
      <trkpt lat="43.83739" lon="5.41115">
        <ele>472.63</ele>
        <time>2013-05-05T09:08:58Z</time>
      </trkpt>
      <trkpt lat="43.83741" lon="5.41099">
        <ele>474.07</ele>
        <time>2013-05-05T09:09:17Z</time>
      </trkpt>
      <trkpt lat="43.8374" lon="5.41085">
        <ele>474.07</ele>
        <time>2013-05-05T09:09:29Z</time>
      </trkpt>
      <trkpt lat="43.8374" lon="5.41079">
        <ele>472.63</ele>
        <time>2013-05-05T09:09:34Z</time>
      </trkpt>
      <trkpt lat="43.83737" lon="5.41065">
        <ele>471.66</ele>
        <time>2013-05-05T09:09:48Z</time>
      </trkpt>
      <trkpt lat="43.83739" lon="5.41047">
        <ele>470.22</ele>
        <time>2013-05-05T09:10:03Z</time>
      </trkpt>
      <trkpt lat="43.83742" lon="5.41022">
        <ele>470.22</ele>
        <time>2013-05-05T09:10:19Z</time>
      </trkpt>
      <trkpt lat="43.83738" lon="5.41005">
        <ele>468.78</ele>
        <time>2013-05-05T09:10:32Z</time>
      </trkpt>
      <trkpt lat="43.83737" lon="5.40977">
        <ele>468.3</ele>
        <time>2013-05-05T09:10:45Z</time>
      </trkpt>
      <trkpt lat="43.83739" lon="5.40963">
        <ele>467.34</ele>
        <time>2013-05-05T09:10:59Z</time>
      </trkpt>
      <trkpt lat="43.83736" lon="5.40931">
        <ele>466.38</ele>
        <time>2013-05-05T09:11:15Z</time>
      </trkpt>
      <trkpt lat="43.83733" lon="5.4091">
        <ele>465.42</ele>
        <time>2013-05-05T09:11:29Z</time>
      </trkpt>
      <trkpt lat="43.83731" lon="5.40891">
        <ele>464.93</ele>
        <time>2013-05-05T09:11:43Z</time>
      </trkpt>
      <trkpt lat="43.83731" lon="5.4086">
        <ele>463.97</ele>
        <time>2013-05-05T09:11:59Z</time>
      </trkpt>
      <trkpt lat="43.83726" lon="5.40839">
        <ele>463.01</ele>
        <time>2013-05-05T09:12:16Z</time>
      </trkpt>
      <trkpt lat="43.83718" lon="5.40812">
        <ele>462.53</ele>
        <time>2013-05-05T09:12:32Z</time>
      </trkpt>
      <trkpt lat="43.8371" lon="5.40786">
        <ele>462.53</ele>
        <time>2013-05-05T09:12:48Z</time>
      </trkpt>
      <trkpt lat="43.83702" lon="5.40762">
        <ele>462.53</ele>
        <time>2013-05-05T09:13:03Z</time>
      </trkpt>
      <trkpt lat="43.83698" lon="5.40741">
        <ele>462.05</ele>
        <time>2013-05-05T09:13:17Z</time>
      </trkpt>
      <trkpt lat="43.83696" lon="5.40733">
        <ele>462.05</ele>
        <time>2013-05-05T09:13:33Z</time>
      </trkpt>
      <trkpt lat="43.83697" lon="5.40732">
        <ele>462.05</ele>
        <time>2013-05-05T09:13:50Z</time>
      </trkpt>
      <trkpt lat="43.83699" lon="5.40731">
        <ele>462.05</ele>
        <time>2013-05-05T09:14:18Z</time>
      </trkpt>
      <trkpt lat="43.83697" lon="5.40731">
        <ele>462.05</ele>
        <time>2013-05-05T09:14:45Z</time>
      </trkpt>
      <trkpt lat="43.83696" lon="5.40725">
        <ele>462.05</ele>
        <time>2013-05-05T09:15:05Z</time>
      </trkpt>
      <trkpt lat="43.83691" lon="5.40711">
        <ele>462.05</ele>
        <time>2013-05-05T09:15:16Z</time>
      </trkpt>
      <trkpt lat="43.83684" lon="5.40695">
        <ele>461.09</ele>
        <time>2013-05-05T09:15:31Z</time>
      </trkpt>
      <trkpt lat="43.83676" lon="5.40675">
        <ele>460.61</ele>
        <time>2013-05-05T09:15:45Z</time>
      </trkpt>
      <trkpt lat="43.83673" lon="5.4065">
        <ele>459.17</ele>
        <time>2013-05-05T09:16:03Z</time>
      </trkpt>
      <trkpt lat="43.83667" lon="5.40627">
        <ele>458.69</ele>
        <time>2013-05-05T09:16:19Z</time>
      </trkpt>
      <trkpt lat="43.83664" lon="5.40611">
        <ele>458.69</ele>
        <time>2013-05-05T09:16:27Z</time>
      </trkpt>
      <trkpt lat="43.83658" lon="5.40592">
        <ele>458.69</ele>
        <time>2013-05-05T09:16:40Z</time>
      </trkpt>
      <trkpt lat="43.83647" lon="5.40581">
        <ele>458.21</ele>
        <time>2013-05-05T09:16:54Z</time>
      </trkpt>
      <trkpt lat="43.83638" lon="5.40569">
        <ele>457.72</ele>
        <time>2013-05-05T09:17:08Z</time>
      </trkpt>
      <trkpt lat="43.83631" lon="5.4056">
        <ele>457.24</ele>
        <time>2013-05-05T09:17:16Z</time>
      </trkpt>
      <trkpt lat="43.83619" lon="5.40543">
        <ele>456.76</ele>
        <time>2013-05-05T09:17:31Z</time>
      </trkpt>
      <trkpt lat="43.8361" lon="5.40528">
        <ele>456.76</ele>
        <time>2013-05-05T09:17:42Z</time>
      </trkpt>
      <trkpt lat="43.83599" lon="5.40512">
        <ele>455.32</ele>
        <time>2013-05-05T09:17:56Z</time>
      </trkpt>
      <trkpt lat="43.83593" lon="5.40502">
        <ele>455.32</ele>
        <time>2013-05-05T09:18:04Z</time>
      </trkpt>
      <trkpt lat="43.83584" lon="5.4049">
        <ele>455.32</ele>
        <time>2013-05-05T09:18:17Z</time>
      </trkpt>
      <trkpt lat="43.83578" lon="5.40476">
        <ele>455.32</ele>
        <time>2013-05-05T09:18:33Z</time>
      </trkpt>
      <trkpt lat="43.83563" lon="5.40465">
        <ele>454.36</ele>
        <time>2013-05-05T09:18:49Z</time>
      </trkpt>
      <trkpt lat="43.83561" lon="5.40464">
        <ele>453.4</ele>
        <time>2013-05-05T09:19:06Z</time>
      </trkpt>
      <trkpt lat="43.83554" lon="5.40455">
        <ele>452.92</ele>
        <time>2013-05-05T09:19:25Z</time>
      </trkpt>
      <trkpt lat="43.83552" lon="5.40448">
        <ele>452.92</ele>
        <time>2013-05-05T09:19:42Z</time>
      </trkpt>
      <trkpt lat="43.83546" lon="5.40443">
        <ele>452.92</ele>
        <time>2013-05-05T09:19:57Z</time>
      </trkpt>
      <trkpt lat="43.83548" lon="5.40444">
        <ele>452.92</ele>
        <time>2013-05-05T09:20:23Z</time>
      </trkpt>
      <trkpt lat="43.83557" lon="5.40454">
        <ele>452.92</ele>
        <time>2013-05-05T09:20:44Z</time>
      </trkpt>
      <trkpt lat="43.83557" lon="5.40454">
        <ele>452.92</ele>
        <time>2013-05-05T09:21:07Z</time>
      </trkpt>
      <trkpt lat="43.83559" lon="5.4046">
        <ele>452.92</ele>
        <time>2013-05-05T09:21:26Z</time>
      </trkpt>
      <trkpt lat="43.83566" lon="5.40456">
        <ele>452.92</ele>
        <time>2013-05-05T09:21:51Z</time>
      </trkpt>
      <trkpt lat="43.83569" lon="5.4046">
        <ele>454.36</ele>
        <time>2013-05-05T09:21:56Z</time>
      </trkpt>
      <trkpt lat="43.83572" lon="5.40462">
        <ele>455.32</ele>
        <time>2013-05-05T09:22:00Z</time>
      </trkpt>
      <trkpt lat="43.83582" lon="5.40473">
        <ele>456.28</ele>
        <time>2013-05-05T09:22:15Z</time>
      </trkpt>
      <trkpt lat="43.83594" lon="5.40484">
        <ele>458.21</ele>
        <time>2013-05-05T09:22:32Z</time>
      </trkpt>
      <trkpt lat="43.83607" lon="5.40499">
        <ele>458.21</ele>
        <time>2013-05-05T09:22:48Z</time>
      </trkpt>
      <trkpt lat="43.83619" lon="5.40516">
        <ele>459.17</ele>
        <time>2013-05-05T09:23:05Z</time>
      </trkpt>
      <trkpt lat="43.83631" lon="5.40529">
        <ele>459.65</ele>
        <time>2013-05-05T09:23:19Z</time>
      </trkpt>
      <trkpt lat="43.83642" lon="5.40546">
        <ele>459.65</ele>
        <time>2013-05-05T09:23:33Z</time>
      </trkpt>
      <trkpt lat="43.83654" lon="5.40557">
        <ele>460.61</ele>
        <time>2013-05-05T09:23:48Z</time>
      </trkpt>
      <trkpt lat="43.83668" lon="5.40568">
        <ele>462.53</ele>
        <time>2013-05-05T09:24:04Z</time>
      </trkpt>
      <trkpt lat="43.8368" lon="5.40576">
        <ele>464.93</ele>
        <time>2013-05-05T09:24:20Z</time>
      </trkpt>
      <trkpt lat="43.8369" lon="5.40585">
        <ele>467.34</ele>
        <time>2013-05-05T09:24:35Z</time>
      </trkpt>
      <trkpt lat="43.83691" lon="5.406">
        <ele>469.26</ele>
        <time>2013-05-05T09:24:49Z</time>
      </trkpt>
      <trkpt lat="43.83688" lon="5.40616">
        <ele>471.18</ele>
        <time>2013-05-05T09:25:03Z</time>
      </trkpt>
      <trkpt lat="43.83689" lon="5.4063">
        <ele>472.63</ele>
        <time>2013-05-05T09:25:15Z</time>
      </trkpt>
      <trkpt lat="43.83696" lon="5.40646">
        <ele>473.59</ele>
        <time>2013-05-05T09:25:28Z</time>
      </trkpt>
      <trkpt lat="43.83706" lon="5.40662">
        <ele>475.03</ele>
        <time>2013-05-05T09:25:44Z</time>
      </trkpt>
      <trkpt lat="43.83712" lon="5.40673">
        <ele>476.95</ele>
        <time>2013-05-05T09:25:57Z</time>
      </trkpt>
      <trkpt lat="43.83719" lon="5.40686">
        <ele>478.39</ele>
        <time>2013-05-05T09:26:11Z</time>
      </trkpt>
      <trkpt lat="43.83726" lon="5.40697">
        <ele>480.32</ele>
        <time>2013-05-05T09:26:26Z</time>
      </trkpt>
      <trkpt lat="43.8373" lon="5.40685">
        <ele>482.24</ele>
        <time>2013-05-05T09:26:39Z</time>
      </trkpt>
      <trkpt lat="43.83733" lon="5.40672">
        <ele>483.2</ele>
        <time>2013-05-05T09:26:51Z</time>
      </trkpt>
      <trkpt lat="43.83733" lon="5.40654">
        <ele>484.64</ele>
        <time>2013-05-05T09:27:06Z</time>
      </trkpt>
      <trkpt lat="43.83741" lon="5.40642">
        <ele>486.08</ele>
        <time>2013-05-05T09:27:21Z</time>
      </trkpt>
      <trkpt lat="43.83749" lon="5.40657">
        <ele>487.53</ele>
        <time>2013-05-05T09:27:37Z</time>
      </trkpt>
      <trkpt lat="43.83751" lon="5.40665">
        <ele>488.49</ele>
        <time>2013-05-05T09:27:43Z</time>
      </trkpt>
      <trkpt lat="43.83756" lon="5.40675">
        <ele>488.49</ele>
        <time>2013-05-05T09:27:52Z</time>
      </trkpt>
      <trkpt lat="43.83769" lon="5.40685">
        <ele>489.93</ele>
        <time>2013-05-05T09:28:09Z</time>
      </trkpt>
      <trkpt lat="43.83776" lon="5.40699">
        <ele>491.37</ele>
        <time>2013-05-05T09:28:23Z</time>
      </trkpt>
      <trkpt lat="43.83776" lon="5.40701">
        <ele>491.85</ele>
        <time>2013-05-05T09:28:25Z</time>
      </trkpt>
      <trkpt lat="43.83781" lon="5.40712">
        <ele>492.33</ele>
        <time>2013-05-05T09:28:33Z</time>
      </trkpt>
      <trkpt lat="43.83785" lon="5.40726">
        <ele>493.77</ele>
        <time>2013-05-05T09:28:47Z</time>
      </trkpt>
      <trkpt lat="43.83784" lon="5.40733">
        <ele>494.26</ele>
        <time>2013-05-05T09:29:04Z</time>
      </trkpt>
      <trkpt lat="43.83785" lon="5.40737">
        <ele>494.74</ele>
        <time>2013-05-05T09:29:21Z</time>
      </trkpt>
      <trkpt lat="43.83788" lon="5.40751">
        <ele>496.66</ele>
        <time>2013-05-05T09:29:35Z</time>
      </trkpt>
      <trkpt lat="43.83797" lon="5.40761">
        <ele>498.1</ele>
        <time>2013-05-05T09:29:50Z</time>
      </trkpt>
      <trkpt lat="43.83799" lon="5.40759">
        <ele>498.58</ele>
        <time>2013-05-05T09:29:52Z</time>
      </trkpt>
      <trkpt lat="43.83802" lon="5.40757">
        <ele>498.58</ele>
        <time>2013-05-05T09:29:55Z</time>
      </trkpt>
      <trkpt lat="43.83806" lon="5.40756">
        <ele>500.02</ele>
        <time>2013-05-05T09:29:59Z</time>
      </trkpt>
      <trkpt lat="43.83807" lon="5.40755">
        <ele>500.02</ele>
        <time>2013-05-05T09:30:01Z</time>
      </trkpt>
      <trkpt lat="43.83819" lon="5.40756">
        <ele>502.91</ele>
        <time>2013-05-05T09:30:14Z</time>
      </trkpt>
      <trkpt lat="43.83822" lon="5.40754">
        <ele>503.39</ele>
        <time>2013-05-05T09:30:31Z</time>
      </trkpt>
      <trkpt lat="43.83823" lon="5.4075">
        <ele>503.39</ele>
        <time>2013-05-05T09:30:34Z</time>
      </trkpt>
      <trkpt lat="43.83826" lon="5.40745">
        <ele>504.35</ele>
        <time>2013-05-05T09:30:39Z</time>
      </trkpt>
      <trkpt lat="43.83833" lon="5.4073">
        <ele>505.31</ele>
        <time>2013-05-05T09:30:53Z</time>
      </trkpt>
      <trkpt lat="43.83835" lon="5.40742">
        <ele>507.71</ele>
        <time>2013-05-05T09:31:07Z</time>
      </trkpt>
      <trkpt lat="43.83833" lon="5.40749">
        <ele>508.67</ele>
        <time>2013-05-05T09:31:12Z</time>
      </trkpt>
      <trkpt lat="43.83837" lon="5.40771">
        <ele>510.6</ele>
        <time>2013-05-05T09:31:26Z</time>
      </trkpt>
      <trkpt lat="43.83842" lon="5.40789">
        <ele>512.04</ele>
        <time>2013-05-05T09:31:41Z</time>
      </trkpt>
      <trkpt lat="43.83849" lon="5.40801">
        <ele>514.44</ele>
        <time>2013-05-05T09:31:55Z</time>
      </trkpt>
      <trkpt lat="43.83854" lon="5.40793">
        <ele>515.88</ele>
        <time>2013-05-05T09:32:04Z</time>
      </trkpt>
      <trkpt lat="43.83861" lon="5.40778">
        <ele>517.81</ele>
        <time>2013-05-05T09:32:18Z</time>
      </trkpt>
      <trkpt lat="43.83863" lon="5.4077">
        <ele>519.73</ele>
        <time>2013-05-05T09:32:27Z</time>
      </trkpt>
      <trkpt lat="43.83868" lon="5.40764">
        <ele>519.73</ele>
        <time>2013-05-05T09:32:33Z</time>
      </trkpt>
      <trkpt lat="43.83877" lon="5.40755">
        <ele>520.69</ele>
        <time>2013-05-05T09:32:48Z</time>
      </trkpt>
      <trkpt lat="43.83882" lon="5.40751">
        <ele>521.65</ele>
        <time>2013-05-05T09:32:56Z</time>
      </trkpt>
      <trkpt lat="43.83892" lon="5.40738">
        <ele>524.54</ele>
        <time>2013-05-05T09:33:13Z</time>
      </trkpt>
      <trkpt lat="43.83894" lon="5.40736">
        <ele>524.54</ele>
        <time>2013-05-05T09:33:16Z</time>
      </trkpt>
      <trkpt lat="43.83898" lon="5.4073">
        <ele>525.98</ele>
        <time>2013-05-05T09:33:23Z</time>
      </trkpt>
      <trkpt lat="43.83906" lon="5.40718">
        <ele>527.42</ele>
        <time>2013-05-05T09:33:36Z</time>
      </trkpt>
      <trkpt lat="43.8391" lon="5.40712">
        <ele>528.86</ele>
        <time>2013-05-05T09:33:44Z</time>
      </trkpt>
      <trkpt lat="43.83918" lon="5.40702">
        <ele>530.3</ele>
        <time>2013-05-05T09:33:58Z</time>
      </trkpt>
      <trkpt lat="43.83922" lon="5.40697">
        <ele>530.79</ele>
        <time>2013-05-05T09:34:04Z</time>
      </trkpt>
      <trkpt lat="43.8393" lon="5.40684">
        <ele>532.23</ele>
        <time>2013-05-05T09:34:17Z</time>
      </trkpt>
      <trkpt lat="43.83931" lon="5.40682">
        <ele>532.71</ele>
        <time>2013-05-05T09:34:19Z</time>
      </trkpt>
      <trkpt lat="43.8394" lon="5.40668">
        <ele>534.15</ele>
        <time>2013-05-05T09:34:34Z</time>
      </trkpt>
      <trkpt lat="43.83949" lon="5.40658">
        <ele>536.07</ele>
        <time>2013-05-05T09:34:48Z</time>
      </trkpt>
      <trkpt lat="43.83957" lon="5.4065">
        <ele>538.48</ele>
        <time>2013-05-05T09:35:04Z</time>
      </trkpt>
      <trkpt lat="43.83968" lon="5.40643">
        <ele>539.92</ele>
        <time>2013-05-05T09:35:20Z</time>
      </trkpt>
      <trkpt lat="43.83981" lon="5.4064">
        <ele>542.32</ele>
        <time>2013-05-05T09:35:37Z</time>
      </trkpt>
      <trkpt lat="43.83995" lon="5.40637">
        <ele>543.76</ele>
        <time>2013-05-05T09:35:53Z</time>
      </trkpt>
      <trkpt lat="43.84015" lon="5.40634">
        <ele>545.2</ele>
        <time>2013-05-05T09:36:12Z</time>
      </trkpt>
      <trkpt lat="43.84031" lon="5.40631">
        <ele>546.65</ele>
        <time>2013-05-05T09:36:27Z</time>
      </trkpt>
      <trkpt lat="43.84045" lon="5.40628">
        <ele>547.61</ele>
        <time>2013-05-05T09:36:41Z</time>
      </trkpt>
      <trkpt lat="43.8406" lon="5.40629">
        <ele>549.53</ele>
        <time>2013-05-05T09:36:58Z</time>
      </trkpt>
      <trkpt lat="43.84065" lon="5.40626">
        <ele>550.01</ele>
        <time>2013-05-05T09:37:17Z</time>
      </trkpt>
      <trkpt lat="43.84062" lon="5.40628">
        <ele>550.01</ele>
        <time>2013-05-05T09:37:45Z</time>
      </trkpt>
      <trkpt lat="43.84061" lon="5.4063">
        <ele>550.01</ele>
        <time>2013-05-05T09:38:04Z</time>
      </trkpt>
      <trkpt lat="43.84061" lon="5.4063">
        <ele>550.01</ele>
        <time>2013-05-05T09:38:29Z</time>
      </trkpt>
      <trkpt lat="43.84064" lon="5.40631">
        <ele>550.97</ele>
        <time>2013-05-05T09:38:50Z</time>
      </trkpt>
      <trkpt lat="43.84062" lon="5.40631">
        <ele>550.97</ele>
        <time>2013-05-05T09:39:12Z</time>
      </trkpt>
      <trkpt lat="43.84059" lon="5.40633">
        <ele>550.97</ele>
        <time>2013-05-05T09:39:42Z</time>
      </trkpt>
      <trkpt lat="43.84062" lon="5.40632">
        <ele>550.97</ele>
        <time>2013-05-05T09:40:09Z</time>
      </trkpt>
      <trkpt lat="43.84062" lon="5.4063">
        <ele>551.45</ele>
        <time>2013-05-05T09:40:35Z</time>
      </trkpt>
      <trkpt lat="43.8406" lon="5.40631">
        <ele>551.45</ele>
        <time>2013-05-05T09:41:07Z</time>
      </trkpt>
      <trkpt lat="43.84059" lon="5.4063">
        <ele>551.45</ele>
        <time>2013-05-05T09:41:27Z</time>
      </trkpt>
      <trkpt lat="43.84064" lon="5.40628">
        <ele>551.93</ele>
        <time>2013-05-05T09:41:59Z</time>
      </trkpt>
      <trkpt lat="43.84076" lon="5.4062">
        <ele>552.41</ele>
        <time>2013-05-05T09:42:14Z</time>
      </trkpt>
      <trkpt lat="43.84097" lon="5.40613">
        <ele>552.9</ele>
        <time>2013-05-05T09:42:32Z</time>
      </trkpt>
      <trkpt lat="43.84115" lon="5.40609">
        <ele>552.9</ele>
        <time>2013-05-05T09:42:48Z</time>
      </trkpt>
      <trkpt lat="43.84133" lon="5.40599">
        <ele>552.9</ele>
        <time>2013-05-05T09:43:04Z</time>
      </trkpt>
      <trkpt lat="43.8415" lon="5.40597">
        <ele>552.9</ele>
        <time>2013-05-05T09:43:19Z</time>
      </trkpt>
      <trkpt lat="43.8417" lon="5.40596">
        <ele>552.9</ele>
        <time>2013-05-05T09:43:37Z</time>
      </trkpt>
      <trkpt lat="43.84186" lon="5.4059">
        <ele>552.9</ele>
        <time>2013-05-05T09:43:52Z</time>
      </trkpt>
      <trkpt lat="43.84205" lon="5.40585">
        <ele>552.9</ele>
        <time>2013-05-05T09:44:08Z</time>
      </trkpt>
      <trkpt lat="43.84218" lon="5.40583">
        <ele>552.9</ele>
        <time>2013-05-05T09:44:22Z</time>
      </trkpt>
      <trkpt lat="43.84233" lon="5.40577">
        <ele>552.9</ele>
        <time>2013-05-05T09:44:36Z</time>
      </trkpt>
      <trkpt lat="43.84248" lon="5.40574">
        <ele>552.9</ele>
        <time>2013-05-05T09:44:51Z</time>
      </trkpt>
      <trkpt lat="43.84265" lon="5.40567">
        <ele>552.9</ele>
        <time>2013-05-05T09:45:05Z</time>
      </trkpt>
      <trkpt lat="43.84273" lon="5.40563">
        <ele>552.9</ele>
        <time>2013-05-05T09:45:13Z</time>
      </trkpt>
      <trkpt lat="43.84278" lon="5.40562">
        <ele>552.9</ele>
        <time>2013-05-05T09:45:17Z</time>
      </trkpt>
      <trkpt lat="43.84299" lon="5.40553">
        <ele>551.93</ele>
        <time>2013-05-05T09:45:33Z</time>
      </trkpt>
      <trkpt lat="43.84319" lon="5.40542">
        <ele>551.45</ele>
        <time>2013-05-05T09:45:51Z</time>
      </trkpt>
      <trkpt lat="43.8432" lon="5.40541">
        <ele>551.45</ele>
        <time>2013-05-05T09:45:52Z</time>
      </trkpt>
      <trkpt lat="43.84338" lon="5.4053">
        <ele>550.97</ele>
        <time>2013-05-05T09:46:09Z</time>
      </trkpt>
      <trkpt lat="43.84362" lon="5.40518">
        <ele>550.97</ele>
        <time>2013-05-05T09:46:29Z</time>
      </trkpt>
      <trkpt lat="43.84366" lon="5.40517">
        <ele>550.97</ele>
        <time>2013-05-05T09:46:32Z</time>
      </trkpt>
      <trkpt lat="43.8438" lon="5.40515">
        <ele>550.97</ele>
        <time>2013-05-05T09:46:47Z</time>
      </trkpt>
      <trkpt lat="43.84387" lon="5.40515">
        <ele>550.97</ele>
        <time>2013-05-05T09:46:52Z</time>
      </trkpt>
      <trkpt lat="43.8441" lon="5.40512">
        <ele>550.49</ele>
        <time>2013-05-05T09:47:09Z</time>
      </trkpt>
      <trkpt lat="43.8443" lon="5.4051">
        <ele>550.49</ele>
        <time>2013-05-05T09:47:26Z</time>
      </trkpt>
      <trkpt lat="43.84452" lon="5.40501">
        <ele>550.01</ele>
        <time>2013-05-05T09:47:45Z</time>
      </trkpt>
      <trkpt lat="43.8447" lon="5.40485">
        <ele>550.01</ele>
        <time>2013-05-05T09:48:04Z</time>
      </trkpt>
      <trkpt lat="43.84488" lon="5.40466">
        <ele>549.53</ele>
        <time>2013-05-05T09:48:22Z</time>
      </trkpt>
      <trkpt lat="43.84497" lon="5.40456">
        <ele>549.53</ele>
        <time>2013-05-05T09:48:35Z</time>
      </trkpt>
      <trkpt lat="43.84499" lon="5.40454">
        <ele>549.53</ele>
        <time>2013-05-05T09:49:07Z</time>
      </trkpt>
      <trkpt lat="43.845" lon="5.40456">
        <ele>549.53</ele>
        <time>2013-05-05T09:49:31Z</time>
      </trkpt>
      <trkpt lat="43.845" lon="5.40456">
        <ele>549.53</ele>
        <time>2013-05-05T09:49:54Z</time>
      </trkpt>
      <trkpt lat="43.84499" lon="5.40455">
        <ele>550.01</ele>
        <time>2013-05-05T09:50:16Z</time>
      </trkpt>
      <trkpt lat="43.84505" lon="5.40454">
        <ele>550.01</ele>
        <time>2013-05-05T09:50:35Z</time>
      </trkpt>
      <trkpt lat="43.84509" lon="5.40453">
        <ele>550.01</ele>
        <time>2013-05-05T09:50:38Z</time>
      </trkpt>
      <trkpt lat="43.84531" lon="5.40446">
        <ele>550.01</ele>
        <time>2013-05-05T09:50:57Z</time>
      </trkpt>
      <trkpt lat="43.84551" lon="5.40437">
        <ele>549.53</ele>
        <time>2013-05-05T09:51:14Z</time>
      </trkpt>
      <trkpt lat="43.84554" lon="5.40436">
        <ele>549.53</ele>
        <time>2013-05-05T09:51:17Z</time>
      </trkpt>
      <trkpt lat="43.84577" lon="5.40428">
        <ele>549.53</ele>
        <time>2013-05-05T09:51:36Z</time>
      </trkpt>
      <trkpt lat="43.84584" lon="5.40428">
        <ele>549.53</ele>
        <time>2013-05-05T09:51:53Z</time>
      </trkpt>
      <trkpt lat="43.84603" lon="5.40419">
        <ele>549.05</ele>
        <time>2013-05-05T09:52:13Z</time>
      </trkpt>
      <trkpt lat="43.84618" lon="5.40415">
        <ele>548.57</ele>
        <time>2013-05-05T09:52:27Z</time>
      </trkpt>
      <trkpt lat="43.84624" lon="5.40415">
        <ele>548.57</ele>
        <time>2013-05-05T09:52:32Z</time>
      </trkpt>
      <trkpt lat="43.8463" lon="5.40414">
        <ele>548.57</ele>
        <time>2013-05-05T09:52:36Z</time>
      </trkpt>
      <trkpt lat="43.84641" lon="5.40414">
        <ele>548.57</ele>
        <time>2013-05-05T09:52:50Z</time>
      </trkpt>
      <trkpt lat="43.84643" lon="5.40429">
        <ele>548.57</ele>
        <time>2013-05-05T09:53:06Z</time>
      </trkpt>
      <trkpt lat="43.84643" lon="5.40452">
        <ele>548.57</ele>
        <time>2013-05-05T09:53:21Z</time>
      </trkpt>
      <trkpt lat="43.84642" lon="5.40478">
        <ele>548.57</ele>
        <time>2013-05-05T09:53:40Z</time>
      </trkpt>
      <trkpt lat="43.84642" lon="5.40503">
        <ele>548.57</ele>
        <time>2013-05-05T09:53:57Z</time>
      </trkpt>
      <trkpt lat="43.84645" lon="5.40536">
        <ele>548.57</ele>
        <time>2013-05-05T09:54:18Z</time>
      </trkpt>
      <trkpt lat="43.84645" lon="5.40566">
        <ele>549.05</ele>
        <time>2013-05-05T09:54:36Z</time>
      </trkpt>
      <trkpt lat="43.84654" lon="5.40576">
        <ele>549.05</ele>
        <time>2013-05-05T09:54:49Z</time>
      </trkpt>
      <trkpt lat="43.84666" lon="5.40586">
        <ele>549.05</ele>
        <time>2013-05-05T09:55:07Z</time>
      </trkpt>
      <trkpt lat="43.84676" lon="5.40593">
        <ele>549.05</ele>
        <time>2013-05-05T09:55:22Z</time>
      </trkpt>
      <trkpt lat="43.84697" lon="5.40606">
        <ele>549.05</ele>
        <time>2013-05-05T09:55:41Z</time>
      </trkpt>
      <trkpt lat="43.84714" lon="5.40617">
        <ele>549.05</ele>
        <time>2013-05-05T09:55:58Z</time>
      </trkpt>
      <trkpt lat="43.8472" lon="5.40621">
        <ele>550.49</ele>
        <time>2013-05-05T09:56:06Z</time>
      </trkpt>
      <trkpt lat="43.84724" lon="5.40623">
        <ele>549.05</ele>
        <time>2013-05-05T09:56:14Z</time>
      </trkpt>
      <trkpt lat="43.84741" lon="5.40638">
        <ele>549.05</ele>
        <time>2013-05-05T09:56:33Z</time>
      </trkpt>
      <trkpt lat="43.84754" lon="5.40656">
        <ele>549.05</ele>
        <time>2013-05-05T09:56:50Z</time>
      </trkpt>
      <trkpt lat="43.84766" lon="5.40675">
        <ele>550.49</ele>
        <time>2013-05-05T09:57:07Z</time>
      </trkpt>
      <trkpt lat="43.84776" lon="5.40697">
        <ele>550.49</ele>
        <time>2013-05-05T09:57:24Z</time>
      </trkpt>
      <trkpt lat="43.84788" lon="5.40721">
        <ele>550.97</ele>
        <time>2013-05-05T09:57:44Z</time>
      </trkpt>
      <trkpt lat="43.848" lon="5.40747">
        <ele>550.97</ele>
        <time>2013-05-05T09:58:06Z</time>
      </trkpt>
      <trkpt lat="43.84808" lon="5.40765">
        <ele>550.97</ele>
        <time>2013-05-05T09:58:21Z</time>
      </trkpt>
      <trkpt lat="43.8482" lon="5.40786">
        <ele>551.45</ele>
        <time>2013-05-05T09:58:40Z</time>
      </trkpt>
      <trkpt lat="43.84831" lon="5.40809">
        <ele>551.45</ele>
        <time>2013-05-05T09:58:59Z</time>
      </trkpt>
      <trkpt lat="43.84841" lon="5.40834">
        <ele>551.45</ele>
        <time>2013-05-05T09:59:18Z</time>
      </trkpt>
      <trkpt lat="43.84851" lon="5.40854">
        <ele>551.45</ele>
        <time>2013-05-05T09:59:36Z</time>
      </trkpt>
      <trkpt lat="43.84861" lon="5.40872">
        <ele>551.45</ele>
        <time>2013-05-05T09:59:53Z</time>
      </trkpt>
      <trkpt lat="43.84873" lon="5.40895">
        <ele>551.45</ele>
        <time>2013-05-05T10:00:14Z</time>
      </trkpt>
      <trkpt lat="43.84879" lon="5.40909">
        <ele>551.45</ele>
        <time>2013-05-05T10:00:31Z</time>
      </trkpt>
      <trkpt lat="43.8488" lon="5.40912">
        <ele>551.45</ele>
        <time>2013-05-05T10:00:55Z</time>
      </trkpt>
      <trkpt lat="43.84889" lon="5.40932">
        <ele>551.93</ele>
        <time>2013-05-05T10:01:14Z</time>
      </trkpt>
      <trkpt lat="43.84893" lon="5.40945">
        <ele>551.93</ele>
        <time>2013-05-05T10:01:32Z</time>
      </trkpt>
      <trkpt lat="43.84901" lon="5.40962">
        <ele>551.93</ele>
        <time>2013-05-05T10:01:48Z</time>
      </trkpt>
      <trkpt lat="43.84912" lon="5.40985">
        <ele>550.97</ele>
        <time>2013-05-05T10:02:07Z</time>
      </trkpt>
      <trkpt lat="43.84921" lon="5.41002">
        <ele>550.01</ele>
        <time>2013-05-05T10:02:22Z</time>
      </trkpt>
      <trkpt lat="43.84925" lon="5.41006">
        <ele>550.01</ele>
        <time>2013-05-05T10:02:36Z</time>
      </trkpt>
      <trkpt lat="43.84918" lon="5.41007">
        <ele>550.01</ele>
        <time>2013-05-05T10:02:52Z</time>
      </trkpt>
      <trkpt lat="43.84916" lon="5.41009">
        <ele>550.01</ele>
        <time>2013-05-05T10:02:54Z</time>
      </trkpt>
      <trkpt lat="43.84898" lon="5.41025">
        <ele>550.01</ele>
        <time>2013-05-05T10:03:12Z</time>
      </trkpt>
      <trkpt lat="43.84883" lon="5.41039">
        <ele>550.01</ele>
        <time>2013-05-05T10:03:28Z</time>
      </trkpt>
      <trkpt lat="43.84869" lon="5.41049">
        <ele>551.45</ele>
        <time>2013-05-05T10:03:44Z</time>
      </trkpt>
      <trkpt lat="43.84851" lon="5.41062">
        <ele>551.93</ele>
        <time>2013-05-05T10:04:02Z</time>
      </trkpt>
      <trkpt lat="43.84837" lon="5.41075">
        <ele>552.41</ele>
        <time>2013-05-05T10:04:18Z</time>
      </trkpt>
      <trkpt lat="43.84822" lon="5.41088">
        <ele>552.9</ele>
        <time>2013-05-05T10:04:34Z</time>
      </trkpt>
      <trkpt lat="43.84807" lon="5.411">
        <ele>553.38</ele>
        <time>2013-05-05T10:04:50Z</time>
      </trkpt>
      <trkpt lat="43.84799" lon="5.41107">
        <ele>553.38</ele>
        <time>2013-05-05T10:05:04Z</time>
      </trkpt>
      <trkpt lat="43.84784" lon="5.41121">
        <ele>554.34</ele>
        <time>2013-05-05T10:05:20Z</time>
      </trkpt>
      <trkpt lat="43.84767" lon="5.41138">
        <ele>554.82</ele>
        <time>2013-05-05T10:05:38Z</time>
      </trkpt>
      <trkpt lat="43.84749" lon="5.41155">
        <ele>555.78</ele>
        <time>2013-05-05T10:05:56Z</time>
      </trkpt>
      <trkpt lat="43.84745" lon="5.41159">
        <ele>555.78</ele>
        <time>2013-05-05T10:06:00Z</time>
      </trkpt>
      <trkpt lat="43.84741" lon="5.41164">
        <ele>555.78</ele>
        <time>2013-05-05T10:06:05Z</time>
      </trkpt>
      <trkpt lat="43.84735" lon="5.41169">
        <ele>556.26</ele>
        <time>2013-05-05T10:06:11Z</time>
      </trkpt>
      <trkpt lat="43.84719" lon="5.41185">
        <ele>556.74</ele>
        <time>2013-05-05T10:06:27Z</time>
      </trkpt>
      <trkpt lat="43.84716" lon="5.41188">
        <ele>556.74</ele>
        <time>2013-05-05T10:06:30Z</time>
      </trkpt>
      <trkpt lat="43.84702" lon="5.41204">
        <ele>556.74</ele>
        <time>2013-05-05T10:06:45Z</time>
      </trkpt>
      <trkpt lat="43.84684" lon="5.41222">
        <ele>557.22</ele>
        <time>2013-05-05T10:07:00Z</time>
      </trkpt>
      <trkpt lat="43.84681" lon="5.41229">
        <ele>557.7</ele>
        <time>2013-05-05T10:07:04Z</time>
      </trkpt>
      <trkpt lat="43.8468" lon="5.41247">
        <ele>557.7</ele>
        <time>2013-05-05T10:07:18Z</time>
      </trkpt>
      <trkpt lat="43.84682" lon="5.41268">
        <ele>558.66</ele>
        <time>2013-05-05T10:07:32Z</time>
      </trkpt>
      <trkpt lat="43.84684" lon="5.41294">
        <ele>558.66</ele>
        <time>2013-05-05T10:07:49Z</time>
      </trkpt>
      <trkpt lat="43.84693" lon="5.41319">
        <ele>558.66</ele>
        <time>2013-05-05T10:08:05Z</time>
      </trkpt>
      <trkpt lat="43.84703" lon="5.41347">
        <ele>559.14</ele>
        <time>2013-05-05T10:08:21Z</time>
      </trkpt>
      <trkpt lat="43.84704" lon="5.41352">
        <ele>559.14</ele>
        <time>2013-05-05T10:08:25Z</time>
      </trkpt>
      <trkpt lat="43.84706" lon="5.41356">
        <ele>559.14</ele>
        <time>2013-05-05T10:08:27Z</time>
      </trkpt>
      <trkpt lat="43.84713" lon="5.41381">
        <ele>559.14</ele>
        <time>2013-05-05T10:08:42Z</time>
      </trkpt>
      <trkpt lat="43.84715" lon="5.41401">
        <ele>559.14</ele>
        <time>2013-05-05T10:08:54Z</time>
      </trkpt>
      <trkpt lat="43.84717" lon="5.41408">
        <ele>559.14</ele>
        <time>2013-05-05T10:08:58Z</time>
      </trkpt>
      <trkpt lat="43.84726" lon="5.41433">
        <ele>559.62</ele>
        <time>2013-05-05T10:09:14Z</time>
      </trkpt>
      <trkpt lat="43.84731" lon="5.41458">
        <ele>560.11</ele>
        <time>2013-05-05T10:09:29Z</time>
      </trkpt>
      <trkpt lat="43.84735" lon="5.41484">
        <ele>560.59</ele>
        <time>2013-05-05T10:09:45Z</time>
      </trkpt>
      <trkpt lat="43.84733" lon="5.41511">
        <ele>560.59</ele>
        <time>2013-05-05T10:09:59Z</time>
      </trkpt>
      <trkpt lat="43.84733" lon="5.41528">
        <ele>561.07</ele>
        <time>2013-05-05T10:10:08Z</time>
      </trkpt>
      <trkpt lat="43.84727" lon="5.41548">
        <ele>561.55</ele>
        <time>2013-05-05T10:10:22Z</time>
      </trkpt>
      <trkpt lat="43.84726" lon="5.41551">
        <ele>561.55</ele>
        <time>2013-05-05T10:10:24Z</time>
      </trkpt>
      <trkpt lat="43.84726" lon="5.41564">
        <ele>561.55</ele>
        <time>2013-05-05T10:10:32Z</time>
      </trkpt>
      <trkpt lat="43.84729" lon="5.41576">
        <ele>561.55</ele>
        <time>2013-05-05T10:10:47Z</time>
      </trkpt>
      <trkpt lat="43.84741" lon="5.41574">
        <ele>562.03</ele>
        <time>2013-05-05T10:11:01Z</time>
      </trkpt>
      <trkpt lat="43.84739" lon="5.41575">
        <ele>562.03</ele>
        <time>2013-05-05T10:11:16Z</time>
      </trkpt>
      <trkpt lat="43.84738" lon="5.41575">
        <ele>562.03</ele>
        <time>2013-05-05T10:11:35Z</time>
      </trkpt>
      <trkpt lat="43.84738" lon="5.41578">
        <ele>562.03</ele>
        <time>2013-05-05T10:11:55Z</time>
      </trkpt>
      <trkpt lat="43.84739" lon="5.41576">
        <ele>562.51</ele>
        <time>2013-05-05T10:12:12Z</time>
      </trkpt>
      <trkpt lat="43.84739" lon="5.41578">
        <ele>562.51</ele>
        <time>2013-05-05T10:12:33Z</time>
      </trkpt>
      <trkpt lat="43.84739" lon="5.41576">
        <ele>563.95</ele>
        <time>2013-05-05T10:12:56Z</time>
      </trkpt>
      <trkpt lat="43.84739" lon="5.41577">
        <ele>561.07</ele>
        <time>2013-05-05T10:13:07Z</time>
      </trkpt>
      <trkpt lat="43.84739" lon="5.41577">
        <ele>562.51</ele>
        <time>2013-05-05T10:13:09Z</time>
      </trkpt>
      <trkpt lat="43.84739" lon="5.41577">
        <ele>558.18</ele>
        <time>2013-05-05T10:13:10Z</time>
      </trkpt>
      <trkpt lat="43.84739" lon="5.41577">
        <ele>561.55</ele>
        <time>2013-05-05T10:13:11Z</time>
      </trkpt>
      <trkpt lat="43.84739" lon="5.41578">
        <ele>565.87</ele>
        <time>2013-05-05T10:13:15Z</time>
      </trkpt>
      <trkpt lat="43.84739" lon="5.41579">
        <ele>559.14</ele>
        <time>2013-05-05T10:13:17Z</time>
      </trkpt>
      <trkpt lat="43.84739" lon="5.41579">
        <ele>562.51</ele>
        <time>2013-05-05T10:13:18Z</time>
      </trkpt>
      <trkpt lat="43.8474" lon="5.41584">
        <ele>562.99</ele>
        <time>2013-05-05T10:13:33Z</time>
      </trkpt>
      <trkpt lat="43.8474" lon="5.41584">
        <ele>561.55</ele>
        <time>2013-05-05T10:13:36Z</time>
      </trkpt>
      <trkpt lat="43.8474" lon="5.41582">
        <ele>562.51</ele>
        <time>2013-05-05T10:13:45Z</time>
      </trkpt>
      <trkpt lat="43.84739" lon="5.41582">
        <ele>562.99</ele>
        <time>2013-05-05T10:13:55Z</time>
      </trkpt>
      <trkpt lat="43.8474" lon="5.41578">
        <ele>559.14</ele>
        <time>2013-05-05T10:14:28Z</time>
      </trkpt>
      <trkpt lat="43.8474" lon="5.41578">
        <ele>562.51</ele>
        <time>2013-05-05T10:14:29Z</time>
      </trkpt>
      <trkpt lat="43.8474" lon="5.41578">
        <ele>562.99</ele>
        <time>2013-05-05T10:14:38Z</time>
      </trkpt>
      <trkpt lat="43.8474" lon="5.41576">
        <ele>560.59</ele>
        <time>2013-05-05T10:14:49Z</time>
      </trkpt>
      <trkpt lat="43.84739" lon="5.41576">
        <ele>566.35</ele>
        <time>2013-05-05T10:14:51Z</time>
      </trkpt>
      <trkpt lat="43.84739" lon="5.41577">
        <ele>563.47</ele>
        <time>2013-05-05T10:14:52Z</time>
      </trkpt>
      <trkpt lat="43.8474" lon="5.41576">
        <ele>559.14</ele>
        <time>2013-05-05T10:15:01Z</time>
      </trkpt>
      <trkpt lat="43.8474" lon="5.41576">
        <ele>563.47</ele>
        <time>2013-05-05T10:15:02Z</time>
      </trkpt>
      <trkpt lat="43.84739" lon="5.41576">
        <ele>557.7</ele>
        <time>2013-05-05T10:15:03Z</time>
      </trkpt>
      <trkpt lat="43.84739" lon="5.41576">
        <ele>563.47</ele>
        <time>2013-05-05T10:15:04Z</time>
      </trkpt>
      <trkpt lat="43.84739" lon="5.41577">
        <ele>560.59</ele>
        <time>2013-05-05T10:15:05Z</time>
      </trkpt>
      <trkpt lat="43.84739" lon="5.41577">
        <ele>564.43</ele>
        <time>2013-05-05T10:15:06Z</time>
      </trkpt>
      <trkpt lat="43.84738" lon="5.41577">
        <ele>559.14</ele>
        <time>2013-05-05T10:15:41Z</time>
      </trkpt>
      <trkpt lat="43.84738" lon="5.41577">
        <ele>563.95</ele>
        <time>2013-05-05T10:15:42Z</time>
      </trkpt>
      <trkpt lat="43.84738" lon="5.41577">
        <ele>560.11</ele>
        <time>2013-05-05T10:15:43Z</time>
      </trkpt>
      <trkpt lat="43.84738" lon="5.41577">
        <ele>564.91</ele>
        <time>2013-05-05T10:15:44Z</time>
      </trkpt>
      <trkpt lat="43.84743" lon="5.41574">
        <ele>562.51</ele>
        <time>2013-05-05T10:16:00Z</time>
      </trkpt>
      <trkpt lat="43.84735" lon="5.41573">
        <ele>562.03</ele>
        <time>2013-05-05T10:16:24Z</time>
      </trkpt>
      <trkpt lat="43.84741" lon="5.41579">
        <ele>563.47</ele>
        <time>2013-05-05T10:23:47Z</time>
      </trkpt>
      <trkpt lat="43.84741" lon="5.41577">
        <ele>563.95</ele>
        <time>2013-05-05T10:23:58Z</time>
      </trkpt>
      <trkpt lat="43.8474" lon="5.41577">
        <ele>562.51</ele>
        <time>2013-05-05T10:24:02Z</time>
      </trkpt>
      <trkpt lat="43.84739" lon="5.41577">
        <ele>563.47</ele>
        <time>2013-05-05T10:24:05Z</time>
      </trkpt>
      <trkpt lat="43.84739" lon="5.41577">
        <ele>559.62</ele>
        <time>2013-05-05T10:24:08Z</time>
      </trkpt>
      <trkpt lat="43.84739" lon="5.41577">
        <ele>562.03</ele>
        <time>2013-05-05T10:24:09Z</time>
      </trkpt>
      <trkpt lat="43.84739" lon="5.41577">
        <ele>564.91</ele>
        <time>2013-05-05T10:24:11Z</time>
      </trkpt>
      <trkpt lat="43.84739" lon="5.41577">
        <ele>564.43</ele>
        <time>2013-05-05T10:24:17Z</time>
      </trkpt>
      <trkpt lat="43.84737" lon="5.41579">
        <ele>563.47</ele>
        <time>2013-05-05T10:24:43Z</time>
      </trkpt>
      <trkpt lat="43.84739" lon="5.41579">
        <ele>564.91</ele>
        <time>2013-05-05T10:24:58Z</time>
      </trkpt>
      <trkpt lat="43.84738" lon="5.41576">
        <ele>563.95</ele>
        <time>2013-05-05T10:25:25Z</time>
      </trkpt>
      <trkpt lat="43.84738" lon="5.41575">
        <ele>564.43</ele>
        <time>2013-05-05T10:25:42Z</time>
      </trkpt>
      <trkpt lat="43.84738" lon="5.41575">
        <ele>563.47</ele>
        <time>2013-05-05T10:25:45Z</time>
      </trkpt>
      <trkpt lat="43.84739" lon="5.41576">
        <ele>564.91</ele>
        <time>2013-05-05T10:25:47Z</time>
      </trkpt>
      <trkpt lat="43.8474" lon="5.41576">
        <ele>562.99</ele>
        <time>2013-05-05T10:25:55Z</time>
      </trkpt>
      <trkpt lat="43.8474" lon="5.41577">
        <ele>563.47</ele>
        <time>2013-05-05T10:26:20Z</time>
      </trkpt>
      <trkpt lat="43.84739" lon="5.41578">
        <ele>564.91</ele>
        <time>2013-05-05T10:26:54Z</time>
      </trkpt>
      <trkpt lat="43.8474" lon="5.41583">
        <ele>563.47</ele>
        <time>2013-05-05T10:27:17Z</time>
      </trkpt>
      <trkpt lat="43.84739" lon="5.41582">
        <ele>564.91</ele>
        <time>2013-05-05T10:27:37Z</time>
      </trkpt>
      <trkpt lat="43.84738" lon="5.41584">
        <ele>564.91</ele>
        <time>2013-05-05T10:28:17Z</time>
      </trkpt>
      <trkpt lat="43.84738" lon="5.41581">
        <ele>564.91</ele>
        <time>2013-05-05T10:28:54Z</time>
      </trkpt>
      <trkpt lat="43.84739" lon="5.41579">
        <ele>565.39</ele>
        <time>2013-05-05T10:29:19Z</time>
      </trkpt>
      <trkpt lat="43.84741" lon="5.41578">
        <ele>565.39</ele>
        <time>2013-05-05T10:29:45Z</time>
      </trkpt>
      <trkpt lat="43.8474" lon="5.41579">
        <ele>564.91</ele>
        <time>2013-05-05T10:30:08Z</time>
      </trkpt>
      <trkpt lat="43.84741" lon="5.41578">
        <ele>564.43</ele>
        <time>2013-05-05T10:30:14Z</time>
      </trkpt>
      <trkpt lat="43.84739" lon="5.41574">
        <ele>565.39</ele>
        <time>2013-05-05T10:30:35Z</time>
      </trkpt>
      <trkpt lat="43.84738" lon="5.41575">
        <ele>559.62</ele>
        <time>2013-05-05T10:30:36Z</time>
      </trkpt>
      <trkpt lat="43.84739" lon="5.41575">
        <ele>566.35</ele>
        <time>2013-05-05T10:30:37Z</time>
      </trkpt>
      <trkpt lat="43.8474" lon="5.41575">
        <ele>558.66</ele>
        <time>2013-05-05T10:30:41Z</time>
      </trkpt>
      <trkpt lat="43.8474" lon="5.41574">
        <ele>564.43</ele>
        <time>2013-05-05T10:30:42Z</time>
      </trkpt>
      <trkpt lat="43.8474" lon="5.41575">
        <ele>565.87</ele>
        <time>2013-05-05T10:30:44Z</time>
      </trkpt>
      <trkpt lat="43.8474" lon="5.41576">
        <ele>562.03</ele>
        <time>2013-05-05T10:30:54Z</time>
      </trkpt>
      <trkpt lat="43.8474" lon="5.41576">
        <ele>565.39</ele>
        <time>2013-05-05T10:30:55Z</time>
      </trkpt>
      <trkpt lat="43.8474" lon="5.41574">
        <ele>565.87</ele>
        <time>2013-05-05T10:31:29Z</time>
      </trkpt>
      <trkpt lat="43.8474" lon="5.41577">
        <ele>565.87</ele>
        <time>2013-05-05T10:32:08Z</time>
      </trkpt>
      <trkpt lat="43.84737" lon="5.41574">
        <ele>565.87</ele>
        <time>2013-05-05T10:32:33Z</time>
      </trkpt>
      <trkpt lat="43.84737" lon="5.41577">
        <ele>565.87</ele>
        <time>2013-05-05T10:33:23Z</time>
      </trkpt>
      <trkpt lat="43.84739" lon="5.41578">
        <ele>566.35</ele>
        <time>2013-05-05T10:33:51Z</time>
      </trkpt>
      <trkpt lat="43.84738" lon="5.41582">
        <ele>566.83</ele>
        <time>2013-05-05T10:34:43Z</time>
      </trkpt>
      <trkpt lat="43.84739" lon="5.41581">
        <ele>565.39</ele>
        <time>2013-05-05T10:35:01Z</time>
      </trkpt>
      <trkpt lat="43.84739" lon="5.41579">
        <ele>566.35</ele>
        <time>2013-05-05T10:35:07Z</time>
      </trkpt>
      <trkpt lat="43.84739" lon="5.41578">
        <ele>565.39</ele>
        <time>2013-05-05T10:35:13Z</time>
      </trkpt>
      <trkpt lat="43.84739" lon="5.41578">
        <ele>567.8</ele>
        <time>2013-05-05T10:35:16Z</time>
      </trkpt>
      <trkpt lat="43.84739" lon="5.41578">
        <ele>564.43</ele>
        <time>2013-05-05T10:35:17Z</time>
      </trkpt>
      <trkpt lat="43.84739" lon="5.41578">
        <ele>568.76</ele>
        <time>2013-05-05T10:35:18Z</time>
      </trkpt>
      <trkpt lat="43.84739" lon="5.41578">
        <ele>561.07</ele>
        <time>2013-05-05T10:35:19Z</time>
      </trkpt>
      <trkpt lat="43.84739" lon="5.41578">
        <ele>564.91</ele>
        <time>2013-05-05T10:35:20Z</time>
      </trkpt>
      <trkpt lat="43.84739" lon="5.41578">
        <ele>568.76</ele>
        <time>2013-05-05T10:35:22Z</time>
      </trkpt>
      <trkpt lat="43.84739" lon="5.41578">
        <ele>568.76</ele>
        <time>2013-05-05T10:35:23Z</time>
      </trkpt>
      <trkpt lat="43.84738" lon="5.41577">
        <ele>565.87</ele>
        <time>2013-05-05T10:35:33Z</time>
      </trkpt>
      <trkpt lat="43.84738" lon="5.41577">
        <ele>566.83</ele>
        <time>2013-05-05T10:35:36Z</time>
      </trkpt>
      <trkpt lat="43.84739" lon="5.41579">
        <ele>562.51</ele>
        <time>2013-05-05T10:35:46Z</time>
      </trkpt>
      <trkpt lat="43.84738" lon="5.41579">
        <ele>565.39</ele>
        <time>2013-05-05T10:35:48Z</time>
      </trkpt>
      <trkpt lat="43.84738" lon="5.41579">
        <ele>566.35</ele>
        <time>2013-05-05T10:35:50Z</time>
      </trkpt>
      <trkpt lat="43.84738" lon="5.41578">
        <ele>561.07</ele>
        <time>2013-05-05T10:35:54Z</time>
      </trkpt>
      <trkpt lat="43.84738" lon="5.41578">
        <ele>561.07</ele>
        <time>2013-05-05T10:35:55Z</time>
      </trkpt>
      <trkpt lat="43.84738" lon="5.41578">
        <ele>566.83</ele>
        <time>2013-05-05T10:35:56Z</time>
      </trkpt>
      <trkpt lat="43.84738" lon="5.41577">
        <ele>566.35</ele>
        <time>2013-05-05T10:36:00Z</time>
      </trkpt>
      <trkpt lat="43.84737" lon="5.41578">
        <ele>565.87</ele>
        <time>2013-05-05T10:36:27Z</time>
      </trkpt>
      <trkpt lat="43.84737" lon="5.41579">
        <ele>565.87</ele>
        <time>2013-05-05T10:37:02Z</time>
      </trkpt>
      <trkpt lat="43.84741" lon="5.41575">
        <ele>565.87</ele>
        <time>2013-05-05T10:37:47Z</time>
      </trkpt>
      <trkpt lat="43.84742" lon="5.41581">
        <ele>566.35</ele>
        <time>2013-05-05T10:38:29Z</time>
      </trkpt>
      <trkpt lat="43.8474" lon="5.41578">
        <ele>566.35</ele>
        <time>2013-05-05T10:39:01Z</time>
      </trkpt>
      <trkpt lat="43.84738" lon="5.41581">
        <ele>567.8</ele>
        <time>2013-05-05T10:39:41Z</time>
      </trkpt>
      <trkpt lat="43.84738" lon="5.41582">
        <ele>567.32</ele>
        <time>2013-05-05T10:40:08Z</time>
      </trkpt>
      <trkpt lat="43.84743" lon="5.41579">
        <ele>567.32</ele>
        <time>2013-05-05T10:40:51Z</time>
      </trkpt>
      <trkpt lat="43.84741" lon="5.41578">
        <ele>567.32</ele>
        <time>2013-05-05T10:41:28Z</time>
      </trkpt>
      <trkpt lat="43.84738" lon="5.41585">
        <ele>567.32</ele>
        <time>2013-05-05T10:42:04Z</time>
      </trkpt>
      <trkpt lat="43.8474" lon="5.41583">
        <ele>567.8</ele>
        <time>2013-05-05T10:42:41Z</time>
      </trkpt>
      <trkpt lat="43.8474" lon="5.41585">
        <ele>568.28</ele>
        <time>2013-05-05T10:43:33Z</time>
      </trkpt>
      <trkpt lat="43.84737" lon="5.41583">
        <ele>568.28</ele>
        <time>2013-05-05T10:43:59Z</time>
      </trkpt>
      <trkpt lat="43.84738" lon="5.41583">
        <ele>568.28</ele>
        <time>2013-05-05T10:44:30Z</time>
      </trkpt>
      <trkpt lat="43.84739" lon="5.41584">
        <ele>568.76</ele>
        <time>2013-05-05T10:45:08Z</time>
      </trkpt>
      <trkpt lat="43.84739" lon="5.41577">
        <ele>568.76</ele>
        <time>2013-05-05T10:45:44Z</time>
      </trkpt>
      <trkpt lat="43.84739" lon="5.41579">
        <ele>569.24</ele>
        <time>2013-05-05T10:46:13Z</time>
      </trkpt>
      <trkpt lat="43.8474" lon="5.41577">
        <ele>569.72</ele>
        <time>2013-05-05T10:46:44Z</time>
      </trkpt>
      <trkpt lat="43.84741" lon="5.41578">
        <ele>569.72</ele>
        <time>2013-05-05T10:47:19Z</time>
      </trkpt>
      <trkpt lat="43.8474" lon="5.41576">
        <ele>569.72</ele>
        <time>2013-05-05T10:47:58Z</time>
      </trkpt>
      <trkpt lat="43.8474" lon="5.41577">
        <ele>569.72</ele>
        <time>2013-05-05T10:48:35Z</time>
      </trkpt>
      <trkpt lat="43.84741" lon="5.41579">
        <ele>570.2</ele>
        <time>2013-05-05T10:49:11Z</time>
      </trkpt>
      <trkpt lat="43.84742" lon="5.41576">
        <ele>571.16</ele>
        <time>2013-05-05T10:49:48Z</time>
      </trkpt>
      <trkpt lat="43.84742" lon="5.41582">
        <ele>571.16</ele>
        <time>2013-05-05T10:50:22Z</time>
      </trkpt>
      <trkpt lat="43.84742" lon="5.41581">
        <ele>571.64</ele>
        <time>2013-05-05T10:50:50Z</time>
      </trkpt>
      <trkpt lat="43.84741" lon="5.41579">
        <ele>567.8</ele>
        <time>2013-05-05T10:51:12Z</time>
      </trkpt>
      <trkpt lat="43.84741" lon="5.41579">
        <ele>570.68</ele>
        <time>2013-05-05T10:51:13Z</time>
      </trkpt>
      <trkpt lat="43.8474" lon="5.41578">
        <ele>570.68</ele>
        <time>2013-05-05T10:51:19Z</time>
      </trkpt>
      <trkpt lat="43.8474" lon="5.41578">
        <ele>572.6</ele>
        <time>2013-05-05T10:51:25Z</time>
      </trkpt>
      <trkpt lat="43.8474" lon="5.41578">
        <ele>571.64</ele>
        <time>2013-05-05T10:51:32Z</time>
      </trkpt>
      <trkpt lat="43.84739" lon="5.41578">
        <ele>567.32</ele>
        <time>2013-05-05T10:51:58Z</time>
      </trkpt>
      <trkpt lat="43.84739" lon="5.41578">
        <ele>573.56</ele>
        <time>2013-05-05T10:51:59Z</time>
      </trkpt>
      <trkpt lat="43.84739" lon="5.41578">
        <ele>569.72</ele>
        <time>2013-05-05T10:52:00Z</time>
      </trkpt>
      <trkpt lat="43.84739" lon="5.41578">
        <ele>575.01</ele>
        <time>2013-05-05T10:52:02Z</time>
      </trkpt>
      <trkpt lat="43.84739" lon="5.41578">
        <ele>573.08</ele>
        <time>2013-05-05T10:52:03Z</time>
      </trkpt>
      <trkpt lat="43.84739" lon="5.41578">
        <ele>570.2</ele>
        <time>2013-05-05T10:52:05Z</time>
      </trkpt>
      <trkpt lat="43.84739" lon="5.41578">
        <ele>571.64</ele>
        <time>2013-05-05T10:52:07Z</time>
      </trkpt>
      <trkpt lat="43.8474" lon="5.41579">
        <ele>572.12</ele>
        <time>2013-05-05T10:52:14Z</time>
      </trkpt>
      <trkpt lat="43.84739" lon="5.41576">
        <ele>572.12</ele>
        <time>2013-05-05T10:52:32Z</time>
      </trkpt>
      <trkpt lat="43.84739" lon="5.41576">
        <ele>572.12</ele>
        <time>2013-05-05T10:52:52Z</time>
      </trkpt>
      <trkpt lat="43.84739" lon="5.41576">
        <ele>574.04</ele>
        <time>2013-05-05T10:52:54Z</time>
      </trkpt>
      <trkpt lat="43.84738" lon="5.41579">
        <ele>572.6</ele>
        <time>2013-05-05T10:53:09Z</time>
      </trkpt>
      <trkpt lat="43.84734" lon="5.41579">
        <ele>572.6</ele>
        <time>2013-05-05T10:53:25Z</time>
      </trkpt>
      <trkpt lat="43.84733" lon="5.4158">
        <ele>572.6</ele>
        <time>2013-05-05T10:53:26Z</time>
      </trkpt>
      <trkpt lat="43.84721" lon="5.41581">
        <ele>572.6</ele>
        <time>2013-05-05T10:53:41Z</time>
      </trkpt>
      <trkpt lat="43.84715" lon="5.41592">
        <ele>572.6</ele>
        <time>2013-05-05T10:53:53Z</time>
      </trkpt>
      <trkpt lat="43.84713" lon="5.41594">
        <ele>573.08</ele>
        <time>2013-05-05T10:53:56Z</time>
      </trkpt>
      <trkpt lat="43.84712" lon="5.41605">
        <ele>573.08</ele>
        <time>2013-05-05T10:54:03Z</time>
      </trkpt>
      <trkpt lat="43.84711" lon="5.41611">
        <ele>573.08</ele>
        <time>2013-05-05T10:54:08Z</time>
      </trkpt>
      <trkpt lat="43.84711" lon="5.41615">
        <ele>573.08</ele>
        <time>2013-05-05T10:54:12Z</time>
      </trkpt>
      <trkpt lat="43.84708" lon="5.41622">
        <ele>573.08</ele>
        <time>2013-05-05T10:54:17Z</time>
      </trkpt>
      <trkpt lat="43.84707" lon="5.41627">
        <ele>573.08</ele>
        <time>2013-05-05T10:54:20Z</time>
      </trkpt>
      <trkpt lat="43.84706" lon="5.4163">
        <ele>574.04</ele>
        <time>2013-05-05T10:54:22Z</time>
      </trkpt>
      <trkpt lat="43.84704" lon="5.41635">
        <ele>574.53</ele>
        <time>2013-05-05T10:54:35Z</time>
      </trkpt>
      <trkpt lat="43.84704" lon="5.41648">
        <ele>574.53</ele>
        <time>2013-05-05T10:54:42Z</time>
      </trkpt>
      <trkpt lat="43.84704" lon="5.41657">
        <ele>574.53</ele>
        <time>2013-05-05T10:54:47Z</time>
      </trkpt>
      <trkpt lat="43.847" lon="5.41683">
        <ele>575.01</ele>
        <time>2013-05-05T10:55:01Z</time>
      </trkpt>
      <trkpt lat="43.84699" lon="5.41686">
        <ele>575.01</ele>
        <time>2013-05-05T10:55:03Z</time>
      </trkpt>
      <trkpt lat="43.84695" lon="5.41691">
        <ele>575.49</ele>
        <time>2013-05-05T10:55:08Z</time>
      </trkpt>
      <trkpt lat="43.84692" lon="5.41692">
        <ele>575.49</ele>
        <time>2013-05-05T10:55:11Z</time>
      </trkpt>
      <trkpt lat="43.84691" lon="5.41694">
        <ele>575.49</ele>
        <time>2013-05-05T10:55:13Z</time>
      </trkpt>
      <trkpt lat="43.84689" lon="5.41698">
        <ele>575.49</ele>
        <time>2013-05-05T10:55:16Z</time>
      </trkpt>
      <trkpt lat="43.84688" lon="5.41707">
        <ele>575.97</ele>
        <time>2013-05-05T10:55:22Z</time>
      </trkpt>
      <trkpt lat="43.84689" lon="5.41713">
        <ele>575.97</ele>
        <time>2013-05-05T10:55:25Z</time>
      </trkpt>
      <trkpt lat="43.84688" lon="5.41719">
        <ele>576.45</ele>
        <time>2013-05-05T10:55:29Z</time>
      </trkpt>
      <trkpt lat="43.84684" lon="5.41738">
        <ele>576.45</ele>
        <time>2013-05-05T10:55:42Z</time>
      </trkpt>
      <trkpt lat="43.8468" lon="5.4176">
        <ele>576.45</ele>
        <time>2013-05-05T10:55:58Z</time>
      </trkpt>
      <trkpt lat="43.84676" lon="5.41782">
        <ele>576.93</ele>
        <time>2013-05-05T10:56:13Z</time>
      </trkpt>
      <trkpt lat="43.84675" lon="5.41788">
        <ele>576.45</ele>
        <time>2013-05-05T10:56:17Z</time>
      </trkpt>
      <trkpt lat="43.84674" lon="5.41794">
        <ele>576.93</ele>
        <time>2013-05-05T10:56:21Z</time>
      </trkpt>
      <trkpt lat="43.84673" lon="5.41809">
        <ele>576.93</ele>
        <time>2013-05-05T10:56:30Z</time>
      </trkpt>
      <trkpt lat="43.84672" lon="5.41818">
        <ele>577.41</ele>
        <time>2013-05-05T10:56:35Z</time>
      </trkpt>
      <trkpt lat="43.84676" lon="5.41843">
        <ele>577.89</ele>
        <time>2013-05-05T10:56:51Z</time>
      </trkpt>
      <trkpt lat="43.84677" lon="5.4185">
        <ele>577.89</ele>
        <time>2013-05-05T10:56:56Z</time>
      </trkpt>
      <trkpt lat="43.84679" lon="5.41875">
        <ele>578.37</ele>
        <time>2013-05-05T10:57:12Z</time>
      </trkpt>
      <trkpt lat="43.84679" lon="5.41878">
        <ele>578.37</ele>
        <time>2013-05-05T10:57:14Z</time>
      </trkpt>
      <trkpt lat="43.84683" lon="5.41901">
        <ele>578.85</ele>
        <time>2013-05-05T10:57:28Z</time>
      </trkpt>
      <trkpt lat="43.84691" lon="5.41925">
        <ele>579.33</ele>
        <time>2013-05-05T10:57:42Z</time>
      </trkpt>
      <trkpt lat="43.84695" lon="5.41934">
        <ele>579.33</ele>
        <time>2013-05-05T10:57:49Z</time>
      </trkpt>
      <trkpt lat="43.84693" lon="5.41963">
        <ele>579.81</ele>
        <time>2013-05-05T10:58:07Z</time>
      </trkpt>
      <trkpt lat="43.84687" lon="5.41974">
        <ele>579.81</ele>
        <time>2013-05-05T10:58:14Z</time>
      </trkpt>
      <trkpt lat="43.84687" lon="5.41989">
        <ele>580.29</ele>
        <time>2013-05-05T10:58:28Z</time>
      </trkpt>
      <trkpt lat="43.84688" lon="5.41997">
        <ele>580.77</ele>
        <time>2013-05-05T10:58:44Z</time>
      </trkpt>
      <trkpt lat="43.84688" lon="5.41999">
        <ele>580.77</ele>
        <time>2013-05-05T10:58:46Z</time>
      </trkpt>
      <trkpt lat="43.84689" lon="5.42004">
        <ele>580.77</ele>
        <time>2013-05-05T10:58:50Z</time>
      </trkpt>
      <trkpt lat="43.84688" lon="5.42024">
        <ele>581.25</ele>
        <time>2013-05-05T10:59:04Z</time>
      </trkpt>
      <trkpt lat="43.84688" lon="5.42032">
        <ele>581.25</ele>
        <time>2013-05-05T10:59:09Z</time>
      </trkpt>
      <trkpt lat="43.84687" lon="5.42049">
        <ele>581.25</ele>
        <time>2013-05-05T10:59:22Z</time>
      </trkpt>
      <trkpt lat="43.84685" lon="5.42071">
        <ele>581.73</ele>
        <time>2013-05-05T10:59:37Z</time>
      </trkpt>
      <trkpt lat="43.84685" lon="5.42073">
        <ele>581.73</ele>
        <time>2013-05-05T10:59:38Z</time>
      </trkpt>
      <trkpt lat="43.84688" lon="5.42091">
        <ele>581.73</ele>
        <time>2013-05-05T10:59:50Z</time>
      </trkpt>
      <trkpt lat="43.84689" lon="5.42097">
        <ele>581.73</ele>
        <time>2013-05-05T10:59:54Z</time>
      </trkpt>
      <trkpt lat="43.84685" lon="5.4211">
        <ele>582.22</ele>
        <time>2013-05-05T11:00:08Z</time>
      </trkpt>
      <trkpt lat="43.84685" lon="5.42109">
        <ele>582.22</ele>
        <time>2013-05-05T11:00:20Z</time>
      </trkpt>
      <trkpt lat="43.84686" lon="5.42102">
        <ele>582.22</ele>
        <time>2013-05-05T11:00:32Z</time>
      </trkpt>
      <trkpt lat="43.84688" lon="5.42101">
        <ele>582.22</ele>
        <time>2013-05-05T11:00:35Z</time>
      </trkpt>
      <trkpt lat="43.84692" lon="5.42104">
        <ele>582.22</ele>
        <time>2013-05-05T11:00:40Z</time>
      </trkpt>
      <trkpt lat="43.84695" lon="5.42102">
        <ele>582.22</ele>
        <time>2013-05-05T11:00:53Z</time>
      </trkpt>
      <trkpt lat="43.84693" lon="5.42104">
        <ele>582.22</ele>
        <time>2013-05-05T11:01:05Z</time>
      </trkpt>
      <trkpt lat="43.8469" lon="5.421">
        <ele>582.22</ele>
        <time>2013-05-05T11:01:16Z</time>
      </trkpt>
      <trkpt lat="43.84688" lon="5.42099">
        <ele>582.22</ele>
        <time>2013-05-05T11:01:28Z</time>
      </trkpt>
      <trkpt lat="43.84688" lon="5.42101">
        <ele>582.22</ele>
        <time>2013-05-05T11:01:32Z</time>
      </trkpt>
      <trkpt lat="43.84687" lon="5.42103">
        <ele>582.22</ele>
        <time>2013-05-05T11:01:34Z</time>
      </trkpt>
      <trkpt lat="43.84686" lon="5.42107">
        <ele>582.22</ele>
        <time>2013-05-05T11:01:37Z</time>
      </trkpt>
      <trkpt lat="43.84687" lon="5.42113">
        <ele>582.22</ele>
        <time>2013-05-05T11:01:41Z</time>
      </trkpt>
      <trkpt lat="43.84686" lon="5.42139">
        <ele>583.66</ele>
        <time>2013-05-05T11:01:56Z</time>
      </trkpt>
      <trkpt lat="43.84683" lon="5.42161">
        <ele>583.66</ele>
        <time>2013-05-05T11:02:11Z</time>
      </trkpt>
      <trkpt lat="43.84684" lon="5.42167">
        <ele>583.66</ele>
        <time>2013-05-05T11:02:15Z</time>
      </trkpt>
      <trkpt lat="43.84683" lon="5.42172">
        <ele>584.14</ele>
        <time>2013-05-05T11:02:19Z</time>
      </trkpt>
      <trkpt lat="43.84684" lon="5.42195">
        <ele>584.14</ele>
        <time>2013-05-05T11:02:35Z</time>
      </trkpt>
      <trkpt lat="43.84684" lon="5.42204">
        <ele>584.14</ele>
        <time>2013-05-05T11:02:41Z</time>
      </trkpt>
      <trkpt lat="43.84684" lon="5.4221">
        <ele>584.14</ele>
        <time>2013-05-05T11:02:46Z</time>
      </trkpt>
      <trkpt lat="43.84685" lon="5.42221">
        <ele>584.14</ele>
        <time>2013-05-05T11:02:52Z</time>
      </trkpt>
      <trkpt lat="43.84686" lon="5.42238">
        <ele>584.14</ele>
        <time>2013-05-05T11:03:02Z</time>
      </trkpt>
      <trkpt lat="43.84687" lon="5.42246">
        <ele>584.14</ele>
        <time>2013-05-05T11:03:08Z</time>
      </trkpt>
      <trkpt lat="43.84689" lon="5.42261">
        <ele>584.14</ele>
        <time>2013-05-05T11:03:17Z</time>
      </trkpt>
      <trkpt lat="43.84692" lon="5.42278">
        <ele>584.14</ele>
        <time>2013-05-05T11:03:28Z</time>
      </trkpt>
      <trkpt lat="43.84694" lon="5.42282">
        <ele>584.14</ele>
        <time>2013-05-05T11:03:30Z</time>
      </trkpt>
      <trkpt lat="43.84695" lon="5.42285">
        <ele>584.14</ele>
        <time>2013-05-05T11:03:32Z</time>
      </trkpt>
      <trkpt lat="43.84699" lon="5.42299">
        <ele>584.14</ele>
        <time>2013-05-05T11:03:44Z</time>
      </trkpt>
      <trkpt lat="43.84697" lon="5.42306">
        <ele>584.14</ele>
        <time>2013-05-05T11:03:58Z</time>
      </trkpt>
      <trkpt lat="43.84696" lon="5.42306">
        <ele>584.14</ele>
        <time>2013-05-05T11:04:12Z</time>
      </trkpt>
      <trkpt lat="43.84695" lon="5.42313">
        <ele>584.14</ele>
        <time>2013-05-05T11:04:20Z</time>
      </trkpt>
      <trkpt lat="43.84696" lon="5.42317">
        <ele>584.14</ele>
        <time>2013-05-05T11:04:23Z</time>
      </trkpt>
      <trkpt lat="43.84697" lon="5.42334">
        <ele>584.14</ele>
        <time>2013-05-05T11:04:36Z</time>
      </trkpt>
      <trkpt lat="43.84696" lon="5.42356">
        <ele>584.14</ele>
        <time>2013-05-05T11:04:51Z</time>
      </trkpt>
      <trkpt lat="43.84695" lon="5.42379">
        <ele>584.14</ele>
        <time>2013-05-05T11:05:07Z</time>
      </trkpt>
      <trkpt lat="43.84693" lon="5.42389">
        <ele>584.14</ele>
        <time>2013-05-05T11:05:14Z</time>
      </trkpt>
      <trkpt lat="43.84692" lon="5.42405">
        <ele>584.14</ele>
        <time>2013-05-05T11:05:22Z</time>
      </trkpt>
      <trkpt lat="43.84691" lon="5.42414">
        <ele>584.14</ele>
        <time>2013-05-05T11:05:27Z</time>
      </trkpt>
      <trkpt lat="43.8469" lon="5.42423">
        <ele>584.14</ele>
        <time>2013-05-05T11:05:33Z</time>
      </trkpt>
      <trkpt lat="43.84689" lon="5.42428">
        <ele>584.14</ele>
        <time>2013-05-05T11:05:37Z</time>
      </trkpt>
      <trkpt lat="43.8469" lon="5.42438">
        <ele>584.14</ele>
        <time>2013-05-05T11:05:43Z</time>
      </trkpt>
      <trkpt lat="43.8469" lon="5.42445">
        <ele>584.14</ele>
        <time>2013-05-05T11:05:47Z</time>
      </trkpt>
      <trkpt lat="43.84689" lon="5.42458">
        <ele>584.62</ele>
        <time>2013-05-05T11:05:55Z</time>
      </trkpt>
      <trkpt lat="43.84687" lon="5.42479">
        <ele>584.62</ele>
        <time>2013-05-05T11:06:08Z</time>
      </trkpt>
      <trkpt lat="43.84684" lon="5.42504">
        <ele>584.62</ele>
        <time>2013-05-05T11:06:24Z</time>
      </trkpt>
      <trkpt lat="43.84682" lon="5.42521">
        <ele>584.62</ele>
        <time>2013-05-05T11:06:35Z</time>
      </trkpt>
      <trkpt lat="43.84682" lon="5.42546">
        <ele>584.62</ele>
        <time>2013-05-05T11:06:50Z</time>
      </trkpt>
      <trkpt lat="43.84682" lon="5.42561">
        <ele>585.1</ele>
        <time>2013-05-05T11:06:59Z</time>
      </trkpt>
      <trkpt lat="43.84682" lon="5.42572">
        <ele>585.1</ele>
        <time>2013-05-05T11:07:05Z</time>
      </trkpt>
      <trkpt lat="43.84683" lon="5.42594">
        <ele>585.58</ele>
        <time>2013-05-05T11:07:19Z</time>
      </trkpt>
      <trkpt lat="43.84684" lon="5.42601">
        <ele>586.06</ele>
        <time>2013-05-05T11:07:23Z</time>
      </trkpt>
      <trkpt lat="43.84685" lon="5.42621">
        <ele>585.58</ele>
        <time>2013-05-05T11:07:37Z</time>
      </trkpt>
      <trkpt lat="43.84685" lon="5.42629">
        <ele>585.58</ele>
        <time>2013-05-05T11:07:42Z</time>
      </trkpt>
      <trkpt lat="43.84684" lon="5.42645">
        <ele>586.06</ele>
        <time>2013-05-05T11:07:52Z</time>
      </trkpt>
      <trkpt lat="43.84684" lon="5.42654">
        <ele>586.06</ele>
        <time>2013-05-05T11:07:58Z</time>
      </trkpt>
      <trkpt lat="43.84679" lon="5.42677">
        <ele>586.54</ele>
        <time>2013-05-05T11:08:14Z</time>
      </trkpt>
      <trkpt lat="43.8467" lon="5.42697">
        <ele>586.54</ele>
        <time>2013-05-05T11:08:29Z</time>
      </trkpt>
      <trkpt lat="43.84669" lon="5.427">
        <ele>586.54</ele>
        <time>2013-05-05T11:08:31Z</time>
      </trkpt>
      <trkpt lat="43.84668" lon="5.42703">
        <ele>586.54</ele>
        <time>2013-05-05T11:08:33Z</time>
      </trkpt>
      <trkpt lat="43.84666" lon="5.4271">
        <ele>586.54</ele>
        <time>2013-05-05T11:08:39Z</time>
      </trkpt>
      <trkpt lat="43.84659" lon="5.42726">
        <ele>586.54</ele>
        <time>2013-05-05T11:08:54Z</time>
      </trkpt>
      <trkpt lat="43.84647" lon="5.42731">
        <ele>587.02</ele>
        <time>2013-05-05T11:09:10Z</time>
      </trkpt>
      <trkpt lat="43.84646" lon="5.42735">
        <ele>587.5</ele>
        <time>2013-05-05T11:09:14Z</time>
      </trkpt>
      <trkpt lat="43.84644" lon="5.4274">
        <ele>587.5</ele>
        <time>2013-05-05T11:09:18Z</time>
      </trkpt>
      <trkpt lat="43.8464" lon="5.4275">
        <ele>587.5</ele>
        <time>2013-05-05T11:09:25Z</time>
      </trkpt>
      <trkpt lat="43.84636" lon="5.42776">
        <ele>587.5</ele>
        <time>2013-05-05T11:09:42Z</time>
      </trkpt>
      <trkpt lat="43.84631" lon="5.42799">
        <ele>587.5</ele>
        <time>2013-05-05T11:09:58Z</time>
      </trkpt>
      <trkpt lat="43.84631" lon="5.42802">
        <ele>587.5</ele>
        <time>2013-05-05T11:10:00Z</time>
      </trkpt>
      <trkpt lat="43.84628" lon="5.42826">
        <ele>587.98</ele>
        <time>2013-05-05T11:10:16Z</time>
      </trkpt>
      <trkpt lat="43.84625" lon="5.42848">
        <ele>588.46</ele>
        <time>2013-05-05T11:10:32Z</time>
      </trkpt>
      <trkpt lat="43.84625" lon="5.42849">
        <ele>588.46</ele>
        <time>2013-05-05T11:10:33Z</time>
      </trkpt>
      <trkpt lat="43.84622" lon="5.42874">
        <ele>588.46</ele>
        <time>2013-05-05T11:10:49Z</time>
      </trkpt>
      <trkpt lat="43.84621" lon="5.42879">
        <ele>588.46</ele>
        <time>2013-05-05T11:10:52Z</time>
      </trkpt>
      <trkpt lat="43.8462" lon="5.42881">
        <ele>588.46</ele>
        <time>2013-05-05T11:10:54Z</time>
      </trkpt>
      <trkpt lat="43.84619" lon="5.42888">
        <ele>588.46</ele>
        <time>2013-05-05T11:10:59Z</time>
      </trkpt>
      <trkpt lat="43.84605" lon="5.429">
        <ele>588.46</ele>
        <time>2013-05-05T11:11:15Z</time>
      </trkpt>
      <trkpt lat="43.84589" lon="5.42907">
        <ele>588.46</ele>
        <time>2013-05-05T11:11:30Z</time>
      </trkpt>
      <trkpt lat="43.84573" lon="5.42907">
        <ele>588.46</ele>
        <time>2013-05-05T11:11:43Z</time>
      </trkpt>
      <trkpt lat="43.84553" lon="5.42909">
        <ele>588.46</ele>
        <time>2013-05-05T11:12:00Z</time>
      </trkpt>
      <trkpt lat="43.84537" lon="5.42911">
        <ele>588.46</ele>
        <time>2013-05-05T11:12:16Z</time>
      </trkpt>
      <trkpt lat="43.84537" lon="5.42912">
        <ele>588.46</ele>
        <time>2013-05-05T11:12:17Z</time>
      </trkpt>
      <trkpt lat="43.84537" lon="5.42917">
        <ele>588.95</ele>
        <time>2013-05-05T11:12:21Z</time>
      </trkpt>
      <trkpt lat="43.84537" lon="5.4292">
        <ele>588.95</ele>
        <time>2013-05-05T11:12:23Z</time>
      </trkpt>
      <trkpt lat="43.84536" lon="5.42925">
        <ele>588.95</ele>
        <time>2013-05-05T11:12:27Z</time>
      </trkpt>
      <trkpt lat="43.84534" lon="5.42947">
        <ele>588.95</ele>
        <time>2013-05-05T11:12:43Z</time>
      </trkpt>
      <trkpt lat="43.84532" lon="5.42973">
        <ele>589.43</ele>
        <time>2013-05-05T11:13:02Z</time>
      </trkpt>
      <trkpt lat="43.8453" lon="5.42981">
        <ele>589.91</ele>
        <time>2013-05-05T11:13:10Z</time>
      </trkpt>
      <trkpt lat="43.84529" lon="5.43003">
        <ele>589.91</ele>
        <time>2013-05-05T11:13:26Z</time>
      </trkpt>
      <trkpt lat="43.84528" lon="5.43009">
        <ele>589.91</ele>
        <time>2013-05-05T11:13:30Z</time>
      </trkpt>
      <trkpt lat="43.84526" lon="5.43034">
        <ele>589.91</ele>
        <time>2013-05-05T11:13:47Z</time>
      </trkpt>
      <trkpt lat="43.84525" lon="5.43057">
        <ele>589.91</ele>
        <time>2013-05-05T11:14:03Z</time>
      </trkpt>
      <trkpt lat="43.84525" lon="5.43079">
        <ele>589.91</ele>
        <time>2013-05-05T11:14:17Z</time>
      </trkpt>
      <trkpt lat="43.84524" lon="5.43091">
        <ele>589.91</ele>
        <time>2013-05-05T11:14:25Z</time>
      </trkpt>
      <trkpt lat="43.84522" lon="5.43106">
        <ele>588.46</ele>
        <time>2013-05-05T11:14:39Z</time>
      </trkpt>
      <trkpt lat="43.84521" lon="5.43118">
        <ele>588.46</ele>
        <time>2013-05-05T11:14:50Z</time>
      </trkpt>
      <trkpt lat="43.84521" lon="5.43121">
        <ele>588.46</ele>
        <time>2013-05-05T11:14:52Z</time>
      </trkpt>
      <trkpt lat="43.84519" lon="5.43144">
        <ele>587.98</ele>
        <time>2013-05-05T11:15:08Z</time>
      </trkpt>
      <trkpt lat="43.84518" lon="5.43167">
        <ele>587.98</ele>
        <time>2013-05-05T11:15:25Z</time>
      </trkpt>
      <trkpt lat="43.84519" lon="5.43177">
        <ele>587.98</ele>
        <time>2013-05-05T11:15:32Z</time>
      </trkpt>
      <trkpt lat="43.84525" lon="5.43189">
        <ele>588.46</ele>
        <time>2013-05-05T11:15:45Z</time>
      </trkpt>
      <trkpt lat="43.84522" lon="5.43187">
        <ele>588.46</ele>
        <time>2013-05-05T11:15:54Z</time>
      </trkpt>
      <trkpt lat="43.84518" lon="5.43189">
        <ele>588.46</ele>
        <time>2013-05-05T11:16:03Z</time>
      </trkpt>
      <trkpt lat="43.84518" lon="5.43213">
        <ele>588.46</ele>
        <time>2013-05-05T11:16:20Z</time>
      </trkpt>
      <trkpt lat="43.84516" lon="5.43221">
        <ele>588.46</ele>
        <time>2013-05-05T11:16:26Z</time>
      </trkpt>
      <trkpt lat="43.84514" lon="5.43233">
        <ele>588.46</ele>
        <time>2013-05-05T11:16:39Z</time>
      </trkpt>
      <trkpt lat="43.84513" lon="5.43253">
        <ele>588.46</ele>
        <time>2013-05-05T11:16:54Z</time>
      </trkpt>
      <trkpt lat="43.84511" lon="5.43272">
        <ele>588.46</ele>
        <time>2013-05-05T11:17:08Z</time>
      </trkpt>
      <trkpt lat="43.8451" lon="5.43275">
        <ele>588.46</ele>
        <time>2013-05-05T11:17:10Z</time>
      </trkpt>
      <trkpt lat="43.84508" lon="5.43298">
        <ele>588.46</ele>
        <time>2013-05-05T11:17:27Z</time>
      </trkpt>
      <trkpt lat="43.84507" lon="5.43319">
        <ele>588.46</ele>
        <time>2013-05-05T11:17:40Z</time>
      </trkpt>
      <trkpt lat="43.84505" lon="5.43337">
        <ele>588.46</ele>
        <time>2013-05-05T11:17:55Z</time>
      </trkpt>
      <trkpt lat="43.84504" lon="5.43352">
        <ele>588.46</ele>
        <time>2013-05-05T11:18:08Z</time>
      </trkpt>
      <trkpt lat="43.84504" lon="5.43356">
        <ele>589.43</ele>
        <time>2013-05-05T11:18:11Z</time>
      </trkpt>
      <trkpt lat="43.84505" lon="5.43365">
        <ele>589.91</ele>
        <time>2013-05-05T11:18:18Z</time>
      </trkpt>
      <trkpt lat="43.84502" lon="5.43382">
        <ele>589.91</ele>
        <time>2013-05-05T11:18:32Z</time>
      </trkpt>
      <trkpt lat="43.84503" lon="5.43377">
        <ele>589.91</ele>
        <time>2013-05-05T11:18:44Z</time>
      </trkpt>
      <trkpt lat="43.84504" lon="5.43368">
        <ele>589.91</ele>
        <time>2013-05-05T11:18:57Z</time>
      </trkpt>
      <trkpt lat="43.84504" lon="5.43359">
        <ele>589.91</ele>
        <time>2013-05-05T11:19:08Z</time>
      </trkpt>
      <trkpt lat="43.84504" lon="5.43351">
        <ele>589.91</ele>
        <time>2013-05-05T11:19:19Z</time>
      </trkpt>
      <trkpt lat="43.84504" lon="5.43351">
        <ele>589.91</ele>
        <time>2013-05-05T11:19:43Z</time>
      </trkpt>
      <trkpt lat="43.84503" lon="5.43352">
        <ele>589.91</ele>
        <time>2013-05-05T11:20:11Z</time>
      </trkpt>
      <trkpt lat="43.84503" lon="5.43352">
        <ele>589.91</ele>
        <time>2013-05-05T11:20:23Z</time>
      </trkpt>
      <trkpt lat="43.84503" lon="5.43361">
        <ele>589.91</ele>
        <time>2013-05-05T11:20:32Z</time>
      </trkpt>
      <trkpt lat="43.84503" lon="5.43377">
        <ele>590.39</ele>
        <time>2013-05-05T11:20:45Z</time>
      </trkpt>
      <trkpt lat="43.845" lon="5.43388">
        <ele>590.39</ele>
        <time>2013-05-05T11:20:58Z</time>
      </trkpt>
      <trkpt lat="43.845" lon="5.4339">
        <ele>590.39</ele>
        <time>2013-05-05T11:21:17Z</time>
      </trkpt>
      <trkpt lat="43.84499" lon="5.43398">
        <ele>590.39</ele>
        <time>2013-05-05T11:21:32Z</time>
      </trkpt>
      <trkpt lat="43.845" lon="5.43413">
        <ele>590.87</ele>
        <time>2013-05-05T11:21:49Z</time>
      </trkpt>
      <trkpt lat="43.845" lon="5.43429">
        <ele>590.87</ele>
        <time>2013-05-05T11:22:02Z</time>
      </trkpt>
      <trkpt lat="43.84499" lon="5.4344">
        <ele>591.35</ele>
        <time>2013-05-05T11:22:10Z</time>
      </trkpt>
      <trkpt lat="43.84498" lon="5.43444">
        <ele>591.83</ele>
        <time>2013-05-05T11:22:13Z</time>
      </trkpt>
      <trkpt lat="43.84498" lon="5.43449">
        <ele>591.83</ele>
        <time>2013-05-05T11:22:16Z</time>
      </trkpt>
      <trkpt lat="43.84496" lon="5.43453">
        <ele>591.83</ele>
        <time>2013-05-05T11:22:19Z</time>
      </trkpt>
      <trkpt lat="43.84495" lon="5.43473">
        <ele>592.31</ele>
        <time>2013-05-05T11:22:33Z</time>
      </trkpt>
      <trkpt lat="43.84493" lon="5.43492">
        <ele>593.27</ele>
        <time>2013-05-05T11:22:47Z</time>
      </trkpt>
      <trkpt lat="43.84493" lon="5.43499">
        <ele>593.27</ele>
        <time>2013-05-05T11:22:52Z</time>
      </trkpt>
      <trkpt lat="43.84492" lon="5.43508">
        <ele>593.75</ele>
        <time>2013-05-05T11:22:59Z</time>
      </trkpt>
      <trkpt lat="43.84491" lon="5.43525">
        <ele>594.23</ele>
        <time>2013-05-05T11:23:13Z</time>
      </trkpt>
      <trkpt lat="43.84491" lon="5.43536">
        <ele>594.71</ele>
        <time>2013-05-05T11:23:23Z</time>
      </trkpt>
      <trkpt lat="43.8449" lon="5.43539">
        <ele>594.71</ele>
        <time>2013-05-05T11:23:25Z</time>
      </trkpt>
      <trkpt lat="43.8449" lon="5.43541">
        <ele>595.19</ele>
        <time>2013-05-05T11:23:27Z</time>
      </trkpt>
      <trkpt lat="43.8449" lon="5.43544">
        <ele>595.67</ele>
        <time>2013-05-05T11:23:29Z</time>
      </trkpt>
      <trkpt lat="43.84488" lon="5.43566">
        <ele>596.15</ele>
        <time>2013-05-05T11:23:45Z</time>
      </trkpt>
      <trkpt lat="43.84487" lon="5.43585">
        <ele>596.64</ele>
        <time>2013-05-05T11:23:59Z</time>
      </trkpt>
      <trkpt lat="43.84486" lon="5.43603">
        <ele>597.6</ele>
        <time>2013-05-05T11:24:12Z</time>
      </trkpt>
      <trkpt lat="43.84485" lon="5.43625">
        <ele>598.08</ele>
        <time>2013-05-05T11:24:27Z</time>
      </trkpt>
      <trkpt lat="43.84482" lon="5.43647">
        <ele>598.56</ele>
        <time>2013-05-05T11:24:42Z</time>
      </trkpt>
      <trkpt lat="43.84482" lon="5.43652">
        <ele>598.56</ele>
        <time>2013-05-05T11:24:45Z</time>
      </trkpt>
      <trkpt lat="43.84479" lon="5.43673">
        <ele>599.04</ele>
        <time>2013-05-05T11:25:00Z</time>
      </trkpt>
      <trkpt lat="43.84478" lon="5.43697">
        <ele>599.52</ele>
        <time>2013-05-05T11:25:15Z</time>
      </trkpt>
      <trkpt lat="43.84477" lon="5.43715">
        <ele>600</ele>
        <time>2013-05-05T11:25:26Z</time>
      </trkpt>
      <trkpt lat="43.84475" lon="5.43735">
        <ele>601.44</ele>
        <time>2013-05-05T11:25:41Z</time>
      </trkpt>
      <trkpt lat="43.84474" lon="5.4374">
        <ele>601.44</ele>
        <time>2013-05-05T11:25:45Z</time>
      </trkpt>
      <trkpt lat="43.84473" lon="5.4375">
        <ele>602.4</ele>
        <time>2013-05-05T11:25:53Z</time>
      </trkpt>
      <trkpt lat="43.84472" lon="5.43761">
        <ele>603.36</ele>
        <time>2013-05-05T11:26:02Z</time>
      </trkpt>
      <trkpt lat="43.84473" lon="5.43775">
        <ele>603.85</ele>
        <time>2013-05-05T11:26:16Z</time>
      </trkpt>
      <trkpt lat="43.84472" lon="5.43793">
        <ele>604.81</ele>
        <time>2013-05-05T11:26:29Z</time>
      </trkpt>
      <trkpt lat="43.84471" lon="5.43802">
        <ele>605.77</ele>
        <time>2013-05-05T11:26:43Z</time>
      </trkpt>
      <trkpt lat="43.8447" lon="5.4381">
        <ele>606.25</ele>
        <time>2013-05-05T11:26:53Z</time>
      </trkpt>
      <trkpt lat="43.84468" lon="5.43827">
        <ele>607.21</ele>
        <time>2013-05-05T11:27:06Z</time>
      </trkpt>
      <trkpt lat="43.84466" lon="5.43838">
        <ele>608.17</ele>
        <time>2013-05-05T11:27:16Z</time>
      </trkpt>
      <trkpt lat="43.84467" lon="5.43841">
        <ele>608.17</ele>
        <time>2013-05-05T11:27:18Z</time>
      </trkpt>
      <trkpt lat="43.84467" lon="5.43848">
        <ele>608.65</ele>
        <time>2013-05-05T11:27:22Z</time>
      </trkpt>
      <trkpt lat="43.84466" lon="5.4386">
        <ele>608.65</ele>
        <time>2013-05-05T11:27:36Z</time>
      </trkpt>
      <trkpt lat="43.84466" lon="5.43877">
        <ele>609.13</ele>
        <time>2013-05-05T11:27:50Z</time>
      </trkpt>
      <trkpt lat="43.84464" lon="5.43898">
        <ele>610.09</ele>
        <time>2013-05-05T11:28:04Z</time>
      </trkpt>
      <trkpt lat="43.84464" lon="5.4391">
        <ele>611.06</ele>
        <time>2013-05-05T11:28:18Z</time>
      </trkpt>
      <trkpt lat="43.84462" lon="5.43922">
        <ele>612.02</ele>
        <time>2013-05-05T11:28:32Z</time>
      </trkpt>
      <trkpt lat="43.84461" lon="5.43929">
        <ele>612.98</ele>
        <time>2013-05-05T11:28:37Z</time>
      </trkpt>
      <trkpt lat="43.84459" lon="5.43949">
        <ele>614.42</ele>
        <time>2013-05-05T11:28:52Z</time>
      </trkpt>
      <trkpt lat="43.84459" lon="5.43953">
        <ele>614.42</ele>
        <time>2013-05-05T11:28:55Z</time>
      </trkpt>
      <trkpt lat="43.84455" lon="5.43974">
        <ele>615.38</ele>
        <time>2013-05-05T11:29:11Z</time>
      </trkpt>
      <trkpt lat="43.84454" lon="5.43985">
        <ele>615.86</ele>
        <time>2013-05-05T11:29:20Z</time>
      </trkpt>
      <trkpt lat="43.84451" lon="5.43992">
        <ele>612.98</ele>
        <time>2013-05-05T11:29:30Z</time>
      </trkpt>
      <trkpt lat="43.84451" lon="5.43992">
        <ele>616.34</ele>
        <time>2013-05-05T11:29:31Z</time>
      </trkpt>
      <trkpt lat="43.84449" lon="5.43993">
        <ele>615.86</ele>
        <time>2013-05-05T11:29:47Z</time>
      </trkpt>
      <trkpt lat="43.84451" lon="5.43996">
        <ele>614.9</ele>
        <time>2013-05-05T11:30:22Z</time>
      </trkpt>
      <trkpt lat="43.8445" lon="5.43994">
        <ele>617.78</ele>
        <time>2013-05-05T11:30:30Z</time>
      </trkpt>
      <trkpt lat="43.8445" lon="5.43994">
        <ele>614.9</ele>
        <time>2013-05-05T11:30:32Z</time>
      </trkpt>
      <trkpt lat="43.84449" lon="5.43994">
        <ele>614.42</ele>
        <time>2013-05-05T11:30:33Z</time>
      </trkpt>
      <trkpt lat="43.84449" lon="5.43995">
        <ele>615.86</ele>
        <time>2013-05-05T11:30:38Z</time>
      </trkpt>
      <trkpt lat="43.8445" lon="5.43994">
        <ele>615.86</ele>
        <time>2013-05-05T11:30:55Z</time>
      </trkpt>
      <trkpt lat="43.84452" lon="5.43992">
        <ele>615.86</ele>
        <time>2013-05-05T11:31:12Z</time>
      </trkpt>
      <trkpt lat="43.84451" lon="5.43992">
        <ele>616.34</ele>
        <time>2013-05-05T11:31:40Z</time>
      </trkpt>
      <trkpt lat="43.84451" lon="5.43991">
        <ele>616.34</ele>
        <time>2013-05-05T11:32:01Z</time>
      </trkpt>
      <trkpt lat="43.84454" lon="5.43991">
        <ele>616.34</ele>
        <time>2013-05-05T11:32:19Z</time>
      </trkpt>
      <trkpt lat="43.84452" lon="5.43991">
        <ele>616.34</ele>
        <time>2013-05-05T11:32:39Z</time>
      </trkpt>
      <trkpt lat="43.84451" lon="5.43991">
        <ele>615.86</ele>
        <time>2013-05-05T11:33:12Z</time>
      </trkpt>
      <trkpt lat="43.84452" lon="5.4399">
        <ele>615.86</ele>
        <time>2013-05-05T11:33:37Z</time>
      </trkpt>
      <trkpt lat="43.84451" lon="5.4399">
        <ele>615.86</ele>
        <time>2013-05-05T11:34:10Z</time>
      </trkpt>
      <trkpt lat="43.84453" lon="5.43989">
        <ele>615.38</ele>
        <time>2013-05-05T11:34:28Z</time>
      </trkpt>
      <trkpt lat="43.84456" lon="5.4399">
        <ele>615.38</ele>
        <time>2013-05-05T11:34:56Z</time>
      </trkpt>
      <trkpt lat="43.84457" lon="5.43993">
        <ele>615.38</ele>
        <time>2013-05-05T11:35:12Z</time>
      </trkpt>
      <trkpt lat="43.84454" lon="5.43992">
        <ele>615.38</ele>
        <time>2013-05-05T11:35:26Z</time>
      </trkpt>
      <trkpt lat="43.84451" lon="5.43993">
        <ele>615.38</ele>
        <time>2013-05-05T11:35:55Z</time>
      </trkpt>
      <trkpt lat="43.84452" lon="5.43996">
        <ele>615.38</ele>
        <time>2013-05-05T11:36:23Z</time>
      </trkpt>
      <trkpt lat="43.84452" lon="5.43994">
        <ele>614.9</ele>
        <time>2013-05-05T11:36:45Z</time>
      </trkpt>
      <trkpt lat="43.84453" lon="5.43992">
        <ele>614.9</ele>
        <time>2013-05-05T11:37:11Z</time>
      </trkpt>
      <trkpt lat="43.84452" lon="5.43992">
        <ele>614.9</ele>
        <time>2013-05-05T11:37:31Z</time>
      </trkpt>
      <trkpt lat="43.84452" lon="5.43993">
        <ele>615.38</ele>
        <time>2013-05-05T11:37:57Z</time>
      </trkpt>
      <trkpt lat="43.84453" lon="5.43989">
        <ele>615.38</ele>
        <time>2013-05-05T11:38:25Z</time>
      </trkpt>
      <trkpt lat="43.84453" lon="5.43989">
        <ele>615.38</ele>
        <time>2013-05-05T11:38:49Z</time>
      </trkpt>
      <trkpt lat="43.84452" lon="5.43989">
        <ele>615.38</ele>
        <time>2013-05-05T11:39:06Z</time>
      </trkpt>
      <trkpt lat="43.84452" lon="5.4399">
        <ele>615.38</ele>
        <time>2013-05-05T11:39:24Z</time>
      </trkpt>
      <trkpt lat="43.84452" lon="5.43991">
        <ele>615.38</ele>
        <time>2013-05-05T11:39:44Z</time>
      </trkpt>
      <trkpt lat="43.84454" lon="5.43994">
        <ele>615.38</ele>
        <time>2013-05-05T11:40:18Z</time>
      </trkpt>
      <trkpt lat="43.84453" lon="5.43995">
        <ele>615.38</ele>
        <time>2013-05-05T11:40:42Z</time>
      </trkpt>
      <trkpt lat="43.84451" lon="5.43994">
        <ele>615.38</ele>
        <time>2013-05-05T11:41:12Z</time>
      </trkpt>
      <trkpt lat="43.84449" lon="5.43997">
        <ele>615.38</ele>
        <time>2013-05-05T11:41:37Z</time>
      </trkpt>
      <trkpt lat="43.84453" lon="5.44">
        <ele>615.38</ele>
        <time>2013-05-05T11:42:03Z</time>
      </trkpt>
      <trkpt lat="43.84457" lon="5.43999">
        <ele>614.9</ele>
        <time>2013-05-05T11:42:16Z</time>
      </trkpt>
      <trkpt lat="43.84465" lon="5.43996">
        <ele>614.9</ele>
        <time>2013-05-05T11:42:36Z</time>
      </trkpt>
      <trkpt lat="43.84476" lon="5.43996">
        <ele>615.38</ele>
        <time>2013-05-05T11:42:50Z</time>
      </trkpt>
      <trkpt lat="43.84493" lon="5.43992">
        <ele>615.38</ele>
        <time>2013-05-05T11:43:08Z</time>
      </trkpt>
      <trkpt lat="43.84513" lon="5.43984">
        <ele>615.38</ele>
        <time>2013-05-05T11:43:30Z</time>
      </trkpt>
      <trkpt lat="43.84529" lon="5.43978">
        <ele>615.38</ele>
        <time>2013-05-05T11:43:50Z</time>
      </trkpt>
      <trkpt lat="43.84551" lon="5.43976">
        <ele>614.9</ele>
        <time>2013-05-05T11:44:10Z</time>
      </trkpt>
      <trkpt lat="43.84562" lon="5.43975">
        <ele>614.9</ele>
        <time>2013-05-05T11:44:22Z</time>
      </trkpt>
      <trkpt lat="43.84564" lon="5.43975">
        <ele>613.94</ele>
        <time>2013-05-05T11:44:24Z</time>
      </trkpt>
      <trkpt lat="43.84583" lon="5.43975">
        <ele>613.94</ele>
        <time>2013-05-05T11:44:42Z</time>
      </trkpt>
      <trkpt lat="43.84598" lon="5.43974">
        <ele>613.46</ele>
        <time>2013-05-05T11:44:57Z</time>
      </trkpt>
      <trkpt lat="43.84616" lon="5.43971">
        <ele>612.98</ele>
        <time>2013-05-05T11:45:14Z</time>
      </trkpt>
      <trkpt lat="43.84634" lon="5.43969">
        <ele>611.06</ele>
        <time>2013-05-05T11:45:31Z</time>
      </trkpt>
      <trkpt lat="43.84655" lon="5.43964">
        <ele>609.61</ele>
        <time>2013-05-05T11:45:50Z</time>
      </trkpt>
      <trkpt lat="43.84672" lon="5.4396">
        <ele>607.69</ele>
        <time>2013-05-05T11:46:07Z</time>
      </trkpt>
      <trkpt lat="43.84691" lon="5.43957">
        <ele>605.77</ele>
        <time>2013-05-05T11:46:25Z</time>
      </trkpt>
      <trkpt lat="43.84709" lon="5.4395">
        <ele>602.88</ele>
        <time>2013-05-05T11:46:44Z</time>
      </trkpt>
      <trkpt lat="43.84725" lon="5.43939">
        <ele>600.96</ele>
        <time>2013-05-05T11:47:02Z</time>
      </trkpt>
      <trkpt lat="43.84741" lon="5.43927">
        <ele>600</ele>
        <time>2013-05-05T11:47:20Z</time>
      </trkpt>
      <trkpt lat="43.84754" lon="5.43909">
        <ele>598.08</ele>
        <time>2013-05-05T11:47:38Z</time>
      </trkpt>
      <trkpt lat="43.84769" lon="5.43891">
        <ele>597.12</ele>
        <time>2013-05-05T11:47:59Z</time>
      </trkpt>
      <trkpt lat="43.84787" lon="5.43881">
        <ele>595.67</ele>
        <time>2013-05-05T11:48:20Z</time>
      </trkpt>
      <trkpt lat="43.84799" lon="5.43873">
        <ele>595.19</ele>
        <time>2013-05-05T11:48:35Z</time>
      </trkpt>
      <trkpt lat="43.84815" lon="5.4386">
        <ele>593.75</ele>
        <time>2013-05-05T11:48:55Z</time>
      </trkpt>
      <trkpt lat="43.84829" lon="5.43846">
        <ele>592.79</ele>
        <time>2013-05-05T11:49:13Z</time>
      </trkpt>
      <trkpt lat="43.84844" lon="5.43833">
        <ele>592.31</ele>
        <time>2013-05-05T11:49:30Z</time>
      </trkpt>
      <trkpt lat="43.84856" lon="5.43821">
        <ele>591.35</ele>
        <time>2013-05-05T11:49:47Z</time>
      </trkpt>
      <trkpt lat="43.84868" lon="5.43808">
        <ele>590.39</ele>
        <time>2013-05-05T11:50:03Z</time>
      </trkpt>
      <trkpt lat="43.8488" lon="5.43795">
        <ele>589.91</ele>
        <time>2013-05-05T11:50:19Z</time>
      </trkpt>
      <trkpt lat="43.84897" lon="5.43779">
        <ele>588.46</ele>
        <time>2013-05-05T11:50:39Z</time>
      </trkpt>
      <trkpt lat="43.84912" lon="5.43767">
        <ele>587.5</ele>
        <time>2013-05-05T11:50:56Z</time>
      </trkpt>
      <trkpt lat="43.84924" lon="5.43758">
        <ele>586.54</ele>
        <time>2013-05-05T11:51:12Z</time>
      </trkpt>
      <trkpt lat="43.84942" lon="5.43744">
        <ele>585.58</ele>
        <time>2013-05-05T11:51:29Z</time>
      </trkpt>
      <trkpt lat="43.84958" lon="5.43731">
        <ele>584.62</ele>
        <time>2013-05-05T11:51:47Z</time>
      </trkpt>
      <trkpt lat="43.84978" lon="5.43716">
        <ele>583.66</ele>
        <time>2013-05-05T11:52:07Z</time>
      </trkpt>
      <trkpt lat="43.84993" lon="5.43704">
        <ele>582.7</ele>
        <time>2013-05-05T11:52:26Z</time>
      </trkpt>
      <trkpt lat="43.85006" lon="5.43691">
        <ele>581.73</ele>
        <time>2013-05-05T11:52:43Z</time>
      </trkpt>
      <trkpt lat="43.85023" lon="5.43676">
        <ele>580.29</ele>
        <time>2013-05-05T11:53:02Z</time>
      </trkpt>
      <trkpt lat="43.8503" lon="5.4367">
        <ele>581.73</ele>
        <time>2013-05-05T11:53:18Z</time>
      </trkpt>
      <trkpt lat="43.85042" lon="5.43663">
        <ele>579.81</ele>
        <time>2013-05-05T11:53:31Z</time>
      </trkpt>
      <trkpt lat="43.85055" lon="5.43653">
        <ele>579.81</ele>
        <time>2013-05-05T11:53:44Z</time>
      </trkpt>
      <trkpt lat="43.85071" lon="5.43638">
        <ele>579.81</ele>
        <time>2013-05-05T11:54:02Z</time>
      </trkpt>
      <trkpt lat="43.85085" lon="5.43624">
        <ele>579.33</ele>
        <time>2013-05-05T11:54:20Z</time>
      </trkpt>
      <trkpt lat="43.85101" lon="5.43611">
        <ele>578.85</ele>
        <time>2013-05-05T11:54:37Z</time>
      </trkpt>
      <trkpt lat="43.85117" lon="5.43598">
        <ele>578.37</ele>
        <time>2013-05-05T11:54:56Z</time>
      </trkpt>
      <trkpt lat="43.85133" lon="5.43585">
        <ele>578.37</ele>
        <time>2013-05-05T11:55:14Z</time>
      </trkpt>
      <trkpt lat="43.85145" lon="5.43571">
        <ele>577.89</ele>
        <time>2013-05-05T11:55:32Z</time>
      </trkpt>
      <trkpt lat="43.85156" lon="5.4356">
        <ele>577.89</ele>
        <time>2013-05-05T11:55:46Z</time>
      </trkpt>
      <trkpt lat="43.85167" lon="5.43554">
        <ele>577.41</ele>
        <time>2013-05-05T11:56:00Z</time>
      </trkpt>
      <trkpt lat="43.85169" lon="5.43552">
        <ele>577.41</ele>
        <time>2013-05-05T11:56:07Z</time>
      </trkpt>
      <trkpt lat="43.85183" lon="5.43538">
        <ele>576.93</ele>
        <time>2013-05-05T11:56:24Z</time>
      </trkpt>
      <trkpt lat="43.85199" lon="5.43525">
        <ele>576.45</ele>
        <time>2013-05-05T11:56:43Z</time>
      </trkpt>
      <trkpt lat="43.85216" lon="5.43515">
        <ele>575.97</ele>
        <time>2013-05-05T11:57:02Z</time>
      </trkpt>
      <trkpt lat="43.85232" lon="5.43506">
        <ele>575.49</ele>
        <time>2013-05-05T11:57:20Z</time>
      </trkpt>
      <trkpt lat="43.85249" lon="5.43496">
        <ele>575.01</ele>
        <time>2013-05-05T11:57:38Z</time>
      </trkpt>
      <trkpt lat="43.8526" lon="5.43492">
        <ele>575.01</ele>
        <time>2013-05-05T11:57:49Z</time>
      </trkpt>
      <trkpt lat="43.85277" lon="5.43483">
        <ele>574.53</ele>
        <time>2013-05-05T11:58:07Z</time>
      </trkpt>
      <trkpt lat="43.85297" lon="5.43474">
        <ele>574.04</ele>
        <time>2013-05-05T11:58:27Z</time>
      </trkpt>
      <trkpt lat="43.85314" lon="5.43466">
        <ele>573.08</ele>
        <time>2013-05-05T11:58:45Z</time>
      </trkpt>
      <trkpt lat="43.8533" lon="5.43458">
        <ele>573.08</ele>
        <time>2013-05-05T11:59:04Z</time>
      </trkpt>
      <trkpt lat="43.85341" lon="5.43454">
        <ele>572.12</ele>
        <time>2013-05-05T11:59:16Z</time>
      </trkpt>
      <trkpt lat="43.85351" lon="5.43452">
        <ele>572.12</ele>
        <time>2013-05-05T11:59:24Z</time>
      </trkpt>
      <trkpt lat="43.85373" lon="5.43445">
        <ele>570.2</ele>
        <time>2013-05-05T11:59:46Z</time>
      </trkpt>
      <trkpt lat="43.8539" lon="5.43446">
        <ele>569.24</ele>
        <time>2013-05-05T12:00:02Z</time>
      </trkpt>
      <trkpt lat="43.85405" lon="5.43448">
        <ele>568.76</ele>
        <time>2013-05-05T12:00:15Z</time>
      </trkpt>
      <trkpt lat="43.85416" lon="5.43448">
        <ele>567.32</ele>
        <time>2013-05-05T12:00:31Z</time>
      </trkpt>
      <trkpt lat="43.85417" lon="5.43448">
        <ele>567.32</ele>
        <time>2013-05-05T12:00:33Z</time>
      </trkpt>
      <trkpt lat="43.8543" lon="5.43448">
        <ele>565.87</ele>
        <time>2013-05-05T12:00:49Z</time>
      </trkpt>
      <trkpt lat="43.85447" lon="5.43448">
        <ele>564.91</ele>
        <time>2013-05-05T12:01:06Z</time>
      </trkpt>
      <trkpt lat="43.85459" lon="5.43445">
        <ele>563.47</ele>
        <time>2013-05-05T12:01:24Z</time>
      </trkpt>
      <trkpt lat="43.85467" lon="5.43445">
        <ele>562.51</ele>
        <time>2013-05-05T12:01:41Z</time>
      </trkpt>
      <trkpt lat="43.85474" lon="5.43445">
        <ele>562.03</ele>
        <time>2013-05-05T12:01:57Z</time>
      </trkpt>
      <trkpt lat="43.85489" lon="5.43439">
        <ele>560.11</ele>
        <time>2013-05-05T12:02:16Z</time>
      </trkpt>
      <trkpt lat="43.85504" lon="5.43435">
        <ele>557.22</ele>
        <time>2013-05-05T12:02:32Z</time>
      </trkpt>
      <trkpt lat="43.8552" lon="5.43428">
        <ele>555.3</ele>
        <time>2013-05-05T12:02:50Z</time>
      </trkpt>
      <trkpt lat="43.85533" lon="5.43422">
        <ele>553.86</ele>
        <time>2013-05-05T12:03:06Z</time>
      </trkpt>
      <trkpt lat="43.85545" lon="5.43419">
        <ele>552.41</ele>
        <time>2013-05-05T12:03:23Z</time>
      </trkpt>
      <trkpt lat="43.85553" lon="5.43421">
        <ele>551.45</ele>
        <time>2013-05-05T12:03:32Z</time>
      </trkpt>
      <trkpt lat="43.85568" lon="5.43427">
        <ele>549.53</ele>
        <time>2013-05-05T12:03:48Z</time>
      </trkpt>
      <trkpt lat="43.85585" lon="5.43432">
        <ele>548.57</ele>
        <time>2013-05-05T12:04:05Z</time>
      </trkpt>
      <trkpt lat="43.85597" lon="5.43434">
        <ele>547.61</ele>
        <time>2013-05-05T12:04:17Z</time>
      </trkpt>
      <trkpt lat="43.85607" lon="5.43435">
        <ele>547.61</ele>
        <time>2013-05-05T12:04:31Z</time>
      </trkpt>
      <trkpt lat="43.85619" lon="5.43437">
        <ele>547.13</ele>
        <time>2013-05-05T12:04:44Z</time>
      </trkpt>
      <trkpt lat="43.85631" lon="5.43438">
        <ele>546.65</ele>
        <time>2013-05-05T12:05:00Z</time>
      </trkpt>
      <trkpt lat="43.85649" lon="5.4344">
        <ele>546.17</ele>
        <time>2013-05-05T12:05:17Z</time>
      </trkpt>
      <trkpt lat="43.85663" lon="5.43441">
        <ele>545.69</ele>
        <time>2013-05-05T12:05:32Z</time>
      </trkpt>
      <trkpt lat="43.85665" lon="5.43442">
        <ele>545.69</ele>
        <time>2013-05-05T12:05:34Z</time>
      </trkpt>
      <trkpt lat="43.85682" lon="5.43444">
        <ele>545.69</ele>
        <time>2013-05-05T12:05:50Z</time>
      </trkpt>
      <trkpt lat="43.85698" lon="5.43448">
        <ele>545.69</ele>
        <time>2013-05-05T12:06:05Z</time>
      </trkpt>
      <trkpt lat="43.85714" lon="5.43452">
        <ele>544.72</ele>
        <time>2013-05-05T12:06:22Z</time>
      </trkpt>
      <trkpt lat="43.85726" lon="5.43448">
        <ele>544.24</ele>
        <time>2013-05-05T12:06:37Z</time>
      </trkpt>
      <trkpt lat="43.8573" lon="5.43446">
        <ele>544.24</ele>
        <time>2013-05-05T12:06:45Z</time>
      </trkpt>
      <trkpt lat="43.85747" lon="5.43441">
        <ele>544.24</ele>
        <time>2013-05-05T12:07:02Z</time>
      </trkpt>
      <trkpt lat="43.85762" lon="5.43436">
        <ele>543.28</ele>
        <time>2013-05-05T12:07:16Z</time>
      </trkpt>
      <trkpt lat="43.85776" lon="5.43431">
        <ele>543.28</ele>
        <time>2013-05-05T12:07:32Z</time>
      </trkpt>
      <trkpt lat="43.85792" lon="5.43423">
        <ele>542.32</ele>
        <time>2013-05-05T12:07:48Z</time>
      </trkpt>
      <trkpt lat="43.8581" lon="5.43412">
        <ele>542.32</ele>
        <time>2013-05-05T12:08:07Z</time>
      </trkpt>
      <trkpt lat="43.85827" lon="5.43397">
        <ele>541.84</ele>
        <time>2013-05-05T12:08:25Z</time>
      </trkpt>
      <trkpt lat="43.85842" lon="5.43388">
        <ele>541.36</ele>
        <time>2013-05-05T12:08:40Z</time>
      </trkpt>
      <trkpt lat="43.85857" lon="5.43376">
        <ele>540.88</ele>
        <time>2013-05-05T12:08:59Z</time>
      </trkpt>
      <trkpt lat="43.85874" lon="5.43372">
        <ele>539.44</ele>
        <time>2013-05-05T12:09:14Z</time>
      </trkpt>
      <trkpt lat="43.85886" lon="5.43366">
        <ele>537.51</ele>
        <time>2013-05-05T12:09:27Z</time>
      </trkpt>
      <trkpt lat="43.85899" lon="5.43357">
        <ele>536.07</ele>
        <time>2013-05-05T12:09:43Z</time>
      </trkpt>
      <trkpt lat="43.85912" lon="5.43347">
        <ele>535.11</ele>
        <time>2013-05-05T12:09:59Z</time>
      </trkpt>
      <trkpt lat="43.85925" lon="5.43333">
        <ele>533.19</ele>
        <time>2013-05-05T12:10:17Z</time>
      </trkpt>
      <trkpt lat="43.85938" lon="5.43319">
        <ele>530.3</ele>
        <time>2013-05-05T12:10:37Z</time>
      </trkpt>
      <trkpt lat="43.85951" lon="5.43301">
        <ele>528.86</ele>
        <time>2013-05-05T12:10:57Z</time>
      </trkpt>
      <trkpt lat="43.85965" lon="5.43285">
        <ele>526.46</ele>
        <time>2013-05-05T12:11:19Z</time>
      </trkpt>
      <trkpt lat="43.8598" lon="5.43268">
        <ele>524.54</ele>
        <time>2013-05-05T12:11:40Z</time>
      </trkpt>
      <trkpt lat="43.85995" lon="5.43254">
        <ele>522.61</ele>
        <time>2013-05-05T12:12:00Z</time>
      </trkpt>
      <trkpt lat="43.86006" lon="5.43232">
        <ele>520.69</ele>
        <time>2013-05-05T12:12:22Z</time>
      </trkpt>
      <trkpt lat="43.86012" lon="5.43206">
        <ele>518.77</ele>
        <time>2013-05-05T12:12:43Z</time>
      </trkpt>
      <trkpt lat="43.86019" lon="5.43181">
        <ele>516.85</ele>
        <time>2013-05-05T12:13:05Z</time>
      </trkpt>
      <trkpt lat="43.86026" lon="5.43164">
        <ele>515.4</ele>
        <time>2013-05-05T12:13:22Z</time>
      </trkpt>
      <trkpt lat="43.86027" lon="5.43163">
        <ele>514.44</ele>
        <time>2013-05-05T12:13:41Z</time>
      </trkpt>
      <trkpt lat="43.86028" lon="5.43161">
        <ele>513.96</ele>
        <time>2013-05-05T12:14:02Z</time>
      </trkpt>
      <trkpt lat="43.86026" lon="5.43153">
        <ele>513.48</ele>
        <time>2013-05-05T12:14:35Z</time>
      </trkpt>
      <trkpt lat="43.86027" lon="5.43143">
        <ele>512.04</ele>
        <time>2013-05-05T12:14:41Z</time>
      </trkpt>
      <trkpt lat="43.86029" lon="5.43134">
        <ele>511.08</ele>
        <time>2013-05-05T12:14:46Z</time>
      </trkpt>
      <trkpt lat="43.86037" lon="5.43108">
        <ele>507.23</ele>
        <time>2013-05-05T12:15:01Z</time>
      </trkpt>
      <trkpt lat="43.86039" lon="5.43101">
        <ele>507.23</ele>
        <time>2013-05-05T12:15:05Z</time>
      </trkpt>
      <trkpt lat="43.86043" lon="5.43077">
        <ele>504.35</ele>
        <time>2013-05-05T12:15:20Z</time>
      </trkpt>
      <trkpt lat="43.86043" lon="5.43046">
        <ele>501.46</ele>
        <time>2013-05-05T12:15:41Z</time>
      </trkpt>
      <trkpt lat="43.86059" lon="5.43038">
        <ele>499.06</ele>
        <time>2013-05-05T12:15:59Z</time>
      </trkpt>
      <trkpt lat="43.86068" lon="5.43035">
        <ele>497.62</ele>
        <time>2013-05-05T12:16:14Z</time>
      </trkpt>
      <trkpt lat="43.86085" lon="5.43027">
        <ele>494.74</ele>
        <time>2013-05-05T12:16:34Z</time>
      </trkpt>
      <trkpt lat="43.86103" lon="5.4302">
        <ele>492.33</ele>
        <time>2013-05-05T12:16:54Z</time>
      </trkpt>
      <trkpt lat="43.86122" lon="5.43016">
        <ele>490.41</ele>
        <time>2013-05-05T12:17:16Z</time>
      </trkpt>
      <trkpt lat="43.86127" lon="5.43013">
        <ele>489.93</ele>
        <time>2013-05-05T12:17:34Z</time>
      </trkpt>
      <trkpt lat="43.86135" lon="5.43013">
        <ele>488.97</ele>
        <time>2013-05-05T12:17:50Z</time>
      </trkpt>
      <trkpt lat="43.86147" lon="5.43008">
        <ele>487.53</ele>
        <time>2013-05-05T12:18:06Z</time>
      </trkpt>
      <trkpt lat="43.8616" lon="5.43005">
        <ele>486.56</ele>
        <time>2013-05-05T12:18:23Z</time>
      </trkpt>
      <trkpt lat="43.86174" lon="5.43002">
        <ele>485.6</ele>
        <time>2013-05-05T12:18:43Z</time>
      </trkpt>
      <trkpt lat="43.86179" lon="5.43012">
        <ele>486.56</ele>
        <time>2013-05-05T12:18:59Z</time>
      </trkpt>
      <trkpt lat="43.86182" lon="5.43025">
        <ele>487.05</ele>
        <time>2013-05-05T12:19:14Z</time>
      </trkpt>
      <trkpt lat="43.8619" lon="5.43039">
        <ele>487.53</ele>
        <time>2013-05-05T12:19:27Z</time>
      </trkpt>
      <trkpt lat="43.8619" lon="5.4304">
        <ele>487.53</ele>
        <time>2013-05-05T12:19:28Z</time>
      </trkpt>
      <trkpt lat="43.86204" lon="5.43045">
        <ele>487.53</ele>
        <time>2013-05-05T12:19:47Z</time>
      </trkpt>
      <trkpt lat="43.86205" lon="5.43045">
        <ele>487.53</ele>
        <time>2013-05-05T12:20:08Z</time>
      </trkpt>
      <trkpt lat="43.86207" lon="5.43043">
        <ele>487.53</ele>
        <time>2013-05-05T12:20:24Z</time>
      </trkpt>
      <trkpt lat="43.86207" lon="5.43039">
        <ele>487.53</ele>
        <time>2013-05-05T12:20:49Z</time>
      </trkpt>
      <trkpt lat="43.86208" lon="5.43041">
        <ele>487.53</ele>
        <time>2013-05-05T12:21:08Z</time>
      </trkpt>
      <trkpt lat="43.86205" lon="5.43044">
        <ele>487.53</ele>
        <time>2013-05-05T12:21:31Z</time>
      </trkpt>
      <trkpt lat="43.86203" lon="5.43042">
        <ele>487.53</ele>
        <time>2013-05-05T12:21:50Z</time>
      </trkpt>
      <trkpt lat="43.86203" lon="5.43042">
        <ele>487.53</ele>
        <time>2013-05-05T12:22:15Z</time>
      </trkpt>
      <trkpt lat="43.86204" lon="5.43042">
        <ele>487.53</ele>
        <time>2013-05-05T12:22:31Z</time>
      </trkpt>
      <trkpt lat="43.86204" lon="5.43042">
        <ele>487.53</ele>
        <time>2013-05-05T12:22:48Z</time>
      </trkpt>
    </trkseg>
  </trk>
</gpx>